<?xml version="1.0" encoding="UTF-8" standalone="no" ?>
<gpx xmlns="http://www.topografix.com/GPX/1/1" xmlns:xsi="http://www.w3.org/2001/XMLSchema-instance" xsi:schemaLocation="http://www.topografix.com/GPX/1/1 http://www.topografix.com/GPX/1/1/gpx.xsd" version="1.1" creator="VisuGPX - https://www.visugpx.com">
  <metadata>
    <name>Samu's Cup 2019</name>
    <desc><![CDATA[régate des SAMU de France
port de Saint Mandrier sur mer
cagnard 16 Garches 2
embarcation Dufour 410
équipage Bruno Fred Cécile Coralyne Sophie Jean Marc Christian
belle météo sur la semaine 
1 BMS 28/05 pas de sortie
14ème/26
détail samuscup.fr]]></desc>
  </metadata>
  <trk>
    <name><![CDATA[Tracé actuel: 31 MAI 2019 13:45]]></name>
    <trkseg>
      <trkpt lat="43.0804" lon="5.92438">
        <ele>5.91</ele>
        <time>2019-05-31T11:45:18Z</time>
      </trkpt>
      <trkpt lat="43.08037" lon="5.92443">
        <ele>6.87</ele>
        <time>2019-05-31T11:45:29Z</time>
      </trkpt>
      <trkpt lat="43.08034" lon="5.92448">
        <ele>6.87</ele>
        <time>2019-05-31T11:45:41Z</time>
      </trkpt>
      <trkpt lat="43.08036" lon="5.92449">
        <ele>7.83</ele>
        <time>2019-05-31T11:45:53Z</time>
      </trkpt>
      <trkpt lat="43.08035" lon="5.92448">
        <ele>8.79</ele>
        <time>2019-05-31T11:46:03Z</time>
      </trkpt>
      <trkpt lat="43.08035" lon="5.92448">
        <ele>10.71</ele>
        <time>2019-05-31T11:46:16Z</time>
      </trkpt>
      <trkpt lat="43.08038" lon="5.92449">
        <ele>10.71</ele>
        <time>2019-05-31T11:46:27Z</time>
      </trkpt>
      <trkpt lat="43.08038" lon="5.92449">
        <ele>11.19</ele>
        <time>2019-05-31T11:46:29Z</time>
      </trkpt>
      <trkpt lat="43.08041" lon="5.92447">
        <ele>10.71</ele>
        <time>2019-05-31T11:46:42Z</time>
      </trkpt>
      <trkpt lat="43.0804" lon="5.92448">
        <ele>11.19</ele>
        <time>2019-05-31T11:46:55Z</time>
      </trkpt>
      <trkpt lat="43.0804" lon="5.9245">
        <ele>11.67</ele>
        <time>2019-05-31T11:47:06Z</time>
      </trkpt>
      <trkpt lat="43.08041" lon="5.9245">
        <ele>11.19</ele>
        <time>2019-05-31T11:47:19Z</time>
      </trkpt>
      <trkpt lat="43.08041" lon="5.92451">
        <ele>11.19</ele>
        <time>2019-05-31T11:47:29Z</time>
      </trkpt>
      <trkpt lat="43.08039" lon="5.9245">
        <ele>12.15</ele>
        <time>2019-05-31T11:47:41Z</time>
      </trkpt>
      <trkpt lat="43.08039" lon="5.92449">
        <ele>11.67</ele>
        <time>2019-05-31T11:47:56Z</time>
      </trkpt>
      <trkpt lat="43.08039" lon="5.92449">
        <ele>11.19</ele>
        <time>2019-05-31T11:48:06Z</time>
      </trkpt>
      <trkpt lat="43.0804" lon="5.92447">
        <ele>9.27</ele>
        <time>2019-05-31T11:48:23Z</time>
      </trkpt>
      <trkpt lat="43.0804" lon="5.92446">
        <ele>8.31</ele>
        <time>2019-05-31T11:48:34Z</time>
      </trkpt>
      <trkpt lat="43.08036" lon="5.92446">
        <ele>7.35</ele>
        <time>2019-05-31T11:48:45Z</time>
      </trkpt>
      <trkpt lat="43.08039" lon="5.92445">
        <ele>-0.34</ele>
        <time>2019-05-31T11:49:07Z</time>
      </trkpt>
      <trkpt lat="43.08039" lon="5.92445">
        <ele>-1.3</ele>
        <time>2019-05-31T11:49:25Z</time>
      </trkpt>
      <trkpt lat="43.0804" lon="5.92446">
        <ele>-2.75</ele>
        <time>2019-05-31T11:49:42Z</time>
      </trkpt>
      <trkpt lat="43.08042" lon="5.92446">
        <ele>-3.71</ele>
        <time>2019-05-31T11:49:52Z</time>
      </trkpt>
      <trkpt lat="43.0804" lon="5.92446">
        <ele>-4.19</ele>
        <time>2019-05-31T11:50:01Z</time>
      </trkpt>
      <trkpt lat="43.08039" lon="5.92447">
        <ele>-4.67</ele>
        <time>2019-05-31T11:50:03Z</time>
      </trkpt>
      <trkpt lat="43.08037" lon="5.92446">
        <ele>-4.67</ele>
        <time>2019-05-31T11:50:15Z</time>
      </trkpt>
      <trkpt lat="43.08036" lon="5.92446">
        <ele>-5.63</ele>
        <time>2019-05-31T11:50:25Z</time>
      </trkpt>
      <trkpt lat="43.08043" lon="5.92446">
        <ele>-6.59</ele>
        <time>2019-05-31T11:50:37Z</time>
      </trkpt>
      <trkpt lat="43.08043" lon="5.92447">
        <ele>-6.59</ele>
        <time>2019-05-31T11:50:52Z</time>
      </trkpt>
      <trkpt lat="43.08041" lon="5.92448">
        <ele>-7.55</ele>
        <time>2019-05-31T11:51:02Z</time>
      </trkpt>
      <trkpt lat="43.08037" lon="5.92448">
        <ele>-7.55</ele>
        <time>2019-05-31T11:51:11Z</time>
      </trkpt>
      <trkpt lat="43.08034" lon="5.9245">
        <ele>-7.55</ele>
        <time>2019-05-31T11:51:14Z</time>
      </trkpt>
      <trkpt lat="43.08026" lon="5.92459">
        <ele>-8.03</ele>
        <time>2019-05-31T11:51:24Z</time>
      </trkpt>
      <trkpt lat="43.08027" lon="5.92463">
        <ele>-7.07</ele>
        <time>2019-05-31T11:51:35Z</time>
      </trkpt>
      <trkpt lat="43.08027" lon="5.92464">
        <ele>-7.07</ele>
        <time>2019-05-31T11:51:36Z</time>
      </trkpt>
      <trkpt lat="43.08036" lon="5.9248">
        <ele>-5.63</ele>
        <time>2019-05-31T11:51:49Z</time>
      </trkpt>
      <trkpt lat="43.08039" lon="5.92484">
        <ele>-5.63</ele>
        <time>2019-05-31T11:51:52Z</time>
      </trkpt>
      <trkpt lat="43.08043" lon="5.92488">
        <ele>-5.15</ele>
        <time>2019-05-31T11:51:55Z</time>
      </trkpt>
      <trkpt lat="43.08063" lon="5.92496">
        <ele>-4.19</ele>
        <time>2019-05-31T11:52:07Z</time>
      </trkpt>
      <trkpt lat="43.08095" lon="5.92492">
        <ele>-2.75</ele>
        <time>2019-05-31T11:52:21Z</time>
      </trkpt>
      <trkpt lat="43.08131" lon="5.92486">
        <ele>-1.3</ele>
        <time>2019-05-31T11:52:35Z</time>
      </trkpt>
      <trkpt lat="43.08166" lon="5.92482">
        <ele>-1.3</ele>
        <time>2019-05-31T11:52:48Z</time>
      </trkpt>
      <trkpt lat="43.08203" lon="5.92478">
        <ele>-2.27</ele>
        <time>2019-05-31T11:53:02Z</time>
      </trkpt>
      <trkpt lat="43.08237" lon="5.92473">
        <ele>-2.75</ele>
        <time>2019-05-31T11:53:16Z</time>
      </trkpt>
      <trkpt lat="43.08272" lon="5.92466">
        <ele>-4.19</ele>
        <time>2019-05-31T11:53:29Z</time>
      </trkpt>
      <trkpt lat="43.08334" lon="5.92454">
        <ele>-2.75</ele>
        <time>2019-05-31T11:53:50Z</time>
      </trkpt>
      <trkpt lat="43.08368" lon="5.92443">
        <ele>-3.71</ele>
        <time>2019-05-31T11:54:02Z</time>
      </trkpt>
      <trkpt lat="43.0843" lon="5.92418">
        <ele>-5.63</ele>
        <time>2019-05-31T11:54:24Z</time>
      </trkpt>
      <trkpt lat="43.08474" lon="5.92395">
        <ele>-7.07</ele>
        <time>2019-05-31T11:54:40Z</time>
      </trkpt>
      <trkpt lat="43.08508" lon="5.92378">
        <ele>-6.11</ele>
        <time>2019-05-31T11:54:52Z</time>
      </trkpt>
      <trkpt lat="43.08542" lon="5.92365">
        <ele>-7.07</ele>
        <time>2019-05-31T11:55:04Z</time>
      </trkpt>
      <trkpt lat="43.0858" lon="5.92356">
        <ele>-6.59</ele>
        <time>2019-05-31T11:55:17Z</time>
      </trkpt>
      <trkpt lat="43.08623" lon="5.92348">
        <ele>-5.63</ele>
        <time>2019-05-31T11:55:31Z</time>
      </trkpt>
      <trkpt lat="43.08677" lon="5.92339">
        <ele>-6.11</ele>
        <time>2019-05-31T11:55:49Z</time>
      </trkpt>
      <trkpt lat="43.08729" lon="5.9233">
        <ele>-6.11</ele>
        <time>2019-05-31T11:56:06Z</time>
      </trkpt>
      <trkpt lat="43.08775" lon="5.92312">
        <ele>-7.07</ele>
        <time>2019-05-31T11:56:21Z</time>
      </trkpt>
      <trkpt lat="43.08821" lon="5.92292">
        <ele>-6.59</ele>
        <time>2019-05-31T11:56:36Z</time>
      </trkpt>
      <trkpt lat="43.08862" lon="5.92276">
        <ele>-7.07</ele>
        <time>2019-05-31T11:56:50Z</time>
      </trkpt>
      <trkpt lat="43.08916" lon="5.92259">
        <ele>-7.07</ele>
        <time>2019-05-31T11:57:08Z</time>
      </trkpt>
      <trkpt lat="43.0896" lon="5.92243">
        <ele>-6.11</ele>
        <time>2019-05-31T11:57:22Z</time>
      </trkpt>
      <trkpt lat="43.09016" lon="5.92211">
        <ele>-5.15</ele>
        <time>2019-05-31T11:57:41Z</time>
      </trkpt>
      <trkpt lat="43.09053" lon="5.92188">
        <ele>-4.67</ele>
        <time>2019-05-31T11:57:54Z</time>
      </trkpt>
      <trkpt lat="43.09091" lon="5.92168">
        <ele>-4.19</ele>
        <time>2019-05-31T11:58:07Z</time>
      </trkpt>
      <trkpt lat="43.09131" lon="5.92146">
        <ele>-5.63</ele>
        <time>2019-05-31T11:58:21Z</time>
      </trkpt>
      <trkpt lat="43.09174" lon="5.92137">
        <ele>-5.63</ele>
        <time>2019-05-31T11:58:35Z</time>
      </trkpt>
      <trkpt lat="43.09218" lon="5.92121">
        <ele>-5.63</ele>
        <time>2019-05-31T11:58:50Z</time>
      </trkpt>
      <trkpt lat="43.0927" lon="5.92106">
        <ele>-5.63</ele>
        <time>2019-05-31T11:59:07Z</time>
      </trkpt>
      <trkpt lat="43.09327" lon="5.92088">
        <ele>-5.63</ele>
        <time>2019-05-31T11:59:26Z</time>
      </trkpt>
      <trkpt lat="43.09376" lon="5.92074">
        <ele>-4.67</ele>
        <time>2019-05-31T11:59:42Z</time>
      </trkpt>
      <trkpt lat="43.0943" lon="5.92061">
        <ele>-4.19</ele>
        <time>2019-05-31T12:00:00Z</time>
      </trkpt>
      <trkpt lat="43.0949" lon="5.92044">
        <ele>-3.71</ele>
        <time>2019-05-31T12:00:20Z</time>
      </trkpt>
      <trkpt lat="43.0954" lon="5.92024">
        <ele>-3.71</ele>
        <time>2019-05-31T12:00:37Z</time>
      </trkpt>
      <trkpt lat="43.09593" lon="5.92007">
        <ele>-4.19</ele>
        <time>2019-05-31T12:00:55Z</time>
      </trkpt>
      <trkpt lat="43.09644" lon="5.91992">
        <ele>-4.19</ele>
        <time>2019-05-31T12:01:12Z</time>
      </trkpt>
      <trkpt lat="43.0971" lon="5.91973">
        <ele>-3.71</ele>
        <time>2019-05-31T12:01:34Z</time>
      </trkpt>
      <trkpt lat="43.09764" lon="5.91959">
        <ele>-3.23</ele>
        <time>2019-05-31T12:01:52Z</time>
      </trkpt>
      <trkpt lat="43.09827" lon="5.91942">
        <ele>-3.71</ele>
        <time>2019-05-31T12:02:13Z</time>
      </trkpt>
      <trkpt lat="43.09884" lon="5.9193">
        <ele>-3.71</ele>
        <time>2019-05-31T12:02:32Z</time>
      </trkpt>
      <trkpt lat="43.09927" lon="5.9192">
        <ele>-2.27</ele>
        <time>2019-05-31T12:02:46Z</time>
      </trkpt>
      <trkpt lat="43.0997" lon="5.91912">
        <ele>-3.71</ele>
        <time>2019-05-31T12:03:00Z</time>
      </trkpt>
      <trkpt lat="43.10028" lon="5.91911">
        <ele>-3.23</ele>
        <time>2019-05-31T12:03:18Z</time>
      </trkpt>
      <trkpt lat="43.10071" lon="5.9192">
        <ele>-2.27</ele>
        <time>2019-05-31T12:03:31Z</time>
      </trkpt>
      <trkpt lat="43.10119" lon="5.91934">
        <ele>-2.27</ele>
        <time>2019-05-31T12:03:47Z</time>
      </trkpt>
      <trkpt lat="43.10155" lon="5.91952">
        <ele>-2.75</ele>
        <time>2019-05-31T12:04:00Z</time>
      </trkpt>
      <trkpt lat="43.10185" lon="5.91966">
        <ele>-3.71</ele>
        <time>2019-05-31T12:04:11Z</time>
      </trkpt>
      <trkpt lat="43.10227" lon="5.91983">
        <ele>-3.71</ele>
        <time>2019-05-31T12:04:25Z</time>
      </trkpt>
      <trkpt lat="43.10268" lon="5.91999">
        <ele>-3.71</ele>
        <time>2019-05-31T12:04:39Z</time>
      </trkpt>
      <trkpt lat="43.10304" lon="5.92011">
        <ele>-3.71</ele>
        <time>2019-05-31T12:04:51Z</time>
      </trkpt>
      <trkpt lat="43.10349" lon="5.92028">
        <ele>-3.23</ele>
        <time>2019-05-31T12:05:06Z</time>
      </trkpt>
      <trkpt lat="43.10392" lon="5.92047">
        <ele>-3.71</ele>
        <time>2019-05-31T12:05:21Z</time>
      </trkpt>
      <trkpt lat="43.10434" lon="5.92069">
        <ele>-3.71</ele>
        <time>2019-05-31T12:05:36Z</time>
      </trkpt>
      <trkpt lat="43.10492" lon="5.92093">
        <ele>-2.27</ele>
        <time>2019-05-31T12:05:56Z</time>
      </trkpt>
      <trkpt lat="43.10553" lon="5.9212">
        <ele>-1.79</ele>
        <time>2019-05-31T12:06:17Z</time>
      </trkpt>
      <trkpt lat="43.10596" lon="5.92141">
        <ele>-1.3</ele>
        <time>2019-05-31T12:06:32Z</time>
      </trkpt>
      <trkpt lat="43.10657" lon="5.92171">
        <ele>-2.27</ele>
        <time>2019-05-31T12:06:53Z</time>
      </trkpt>
      <trkpt lat="43.10712" lon="5.92197">
        <ele>-2.75</ele>
        <time>2019-05-31T12:07:12Z</time>
      </trkpt>
      <trkpt lat="43.10741" lon="5.92212">
        <ele>-3.71</ele>
        <time>2019-05-31T12:07:23Z</time>
      </trkpt>
      <trkpt lat="43.10779" lon="5.92232">
        <ele>-2.75</ele>
        <time>2019-05-31T12:07:38Z</time>
      </trkpt>
      <trkpt lat="43.1082" lon="5.92254">
        <ele>-2.27</ele>
        <time>2019-05-31T12:07:54Z</time>
      </trkpt>
      <trkpt lat="43.10851" lon="5.92272">
        <ele>-2.27</ele>
        <time>2019-05-31T12:08:07Z</time>
      </trkpt>
      <trkpt lat="43.10888" lon="5.92295">
        <ele>-2.27</ele>
        <time>2019-05-31T12:08:23Z</time>
      </trkpt>
      <trkpt lat="43.10916" lon="5.92312">
        <ele>-1.3</ele>
        <time>2019-05-31T12:08:35Z</time>
      </trkpt>
      <trkpt lat="43.10945" lon="5.92329">
        <ele>-0.82</ele>
        <time>2019-05-31T12:08:47Z</time>
      </trkpt>
      <trkpt lat="43.10977" lon="5.92348">
        <ele>-0.34</ele>
        <time>2019-05-31T12:09:02Z</time>
      </trkpt>
      <trkpt lat="43.11007" lon="5.92363">
        <ele>-2.75</ele>
        <time>2019-05-31T12:09:15Z</time>
      </trkpt>
      <trkpt lat="43.11035" lon="5.9238">
        <ele>-2.75</ele>
        <time>2019-05-31T12:09:27Z</time>
      </trkpt>
      <trkpt lat="43.11083" lon="5.92407">
        <ele>-2.75</ele>
        <time>2019-05-31T12:09:47Z</time>
      </trkpt>
      <trkpt lat="43.11128" lon="5.92437">
        <ele>-2.27</ele>
        <time>2019-05-31T12:10:07Z</time>
      </trkpt>
      <trkpt lat="43.11165" lon="5.92463">
        <ele>-5.15</ele>
        <time>2019-05-31T12:10:23Z</time>
      </trkpt>
      <trkpt lat="43.11219" lon="5.92497">
        <ele>-5.63</ele>
        <time>2019-05-31T12:10:46Z</time>
      </trkpt>
      <trkpt lat="43.11263" lon="5.92524">
        <ele>-5.63</ele>
        <time>2019-05-31T12:11:05Z</time>
      </trkpt>
      <trkpt lat="43.11302" lon="5.92551">
        <ele>-7.07</ele>
        <time>2019-05-31T12:11:22Z</time>
      </trkpt>
      <trkpt lat="43.1134" lon="5.92577">
        <ele>-6.11</ele>
        <time>2019-05-31T12:11:39Z</time>
      </trkpt>
      <trkpt lat="43.11375" lon="5.92599">
        <ele>-5.15</ele>
        <time>2019-05-31T12:11:54Z</time>
      </trkpt>
      <trkpt lat="43.11412" lon="5.92627">
        <ele>-6.59</ele>
        <time>2019-05-31T12:12:12Z</time>
      </trkpt>
      <trkpt lat="43.11439" lon="5.92647">
        <ele>-6.11</ele>
        <time>2019-05-31T12:12:28Z</time>
      </trkpt>
      <trkpt lat="43.11465" lon="5.92668">
        <ele>-5.63</ele>
        <time>2019-05-31T12:12:44Z</time>
      </trkpt>
      <trkpt lat="43.11498" lon="5.92696">
        <ele>-5.63</ele>
        <time>2019-05-31T12:13:07Z</time>
      </trkpt>
      <trkpt lat="43.11531" lon="5.92723">
        <ele>-4.67</ele>
        <time>2019-05-31T12:13:29Z</time>
      </trkpt>
      <trkpt lat="43.11569" lon="5.92753">
        <ele>-6.11</ele>
        <time>2019-05-31T12:13:55Z</time>
      </trkpt>
      <trkpt lat="43.11603" lon="5.92785">
        <ele>-4.67</ele>
        <time>2019-05-31T12:14:20Z</time>
      </trkpt>
      <trkpt lat="43.1165" lon="5.92827">
        <ele>-4.67</ele>
        <time>2019-05-31T12:14:52Z</time>
      </trkpt>
      <trkpt lat="43.11686" lon="5.92859">
        <ele>-3.23</ele>
        <time>2019-05-31T12:15:16Z</time>
      </trkpt>
      <trkpt lat="43.11727" lon="5.92891">
        <ele>-2.27</ele>
        <time>2019-05-31T12:15:42Z</time>
      </trkpt>
      <trkpt lat="43.11743" lon="5.92911">
        <ele>-1.79</ele>
        <time>2019-05-31T12:15:54Z</time>
      </trkpt>
      <trkpt lat="43.11755" lon="5.92918">
        <ele>-2.75</ele>
        <time>2019-05-31T12:16:04Z</time>
      </trkpt>
      <trkpt lat="43.11772" lon="5.92929">
        <ele>-3.23</ele>
        <time>2019-05-31T12:16:17Z</time>
      </trkpt>
      <trkpt lat="43.11792" lon="5.92951">
        <ele>-2.27</ele>
        <time>2019-05-31T12:16:37Z</time>
      </trkpt>
      <trkpt lat="43.11806" lon="5.92971">
        <ele>-1.79</ele>
        <time>2019-05-31T12:16:58Z</time>
      </trkpt>
      <trkpt lat="43.11811" lon="5.92975">
        <ele>-2.27</ele>
        <time>2019-05-31T12:17:15Z</time>
      </trkpt>
      <trkpt lat="43.11815" lon="5.92973">
        <ele>-2.27</ele>
        <time>2019-05-31T12:17:36Z</time>
      </trkpt>
      <trkpt lat="43.11816" lon="5.92969">
        <ele>-0.34</ele>
        <time>2019-05-31T12:17:52Z</time>
      </trkpt>
      <trkpt lat="43.11813" lon="5.92963">
        <ele>0.62</ele>
        <time>2019-05-31T12:18:06Z</time>
      </trkpt>
      <trkpt lat="43.11805" lon="5.92959">
        <ele>3.02</ele>
        <time>2019-05-31T12:18:22Z</time>
      </trkpt>
      <trkpt lat="43.11795" lon="5.92964">
        <ele>2.54</ele>
        <time>2019-05-31T12:18:38Z</time>
      </trkpt>
      <trkpt lat="43.11785" lon="5.92968">
        <ele>-1.3</ele>
        <time>2019-05-31T12:18:59Z</time>
      </trkpt>
      <trkpt lat="43.11774" lon="5.92973">
        <ele>-2.27</ele>
        <time>2019-05-31T12:19:22Z</time>
      </trkpt>
      <trkpt lat="43.11771" lon="5.92973">
        <ele>-2.27</ele>
        <time>2019-05-31T12:19:39Z</time>
      </trkpt>
      <trkpt lat="43.11771" lon="5.92974">
        <ele>-2.27</ele>
        <time>2019-05-31T12:20:04Z</time>
      </trkpt>
      <trkpt lat="43.1177" lon="5.92975">
        <ele>-3.71</ele>
        <time>2019-05-31T12:20:24Z</time>
      </trkpt>
      <trkpt lat="43.1177" lon="5.92974">
        <ele>-3.23</ele>
        <time>2019-05-31T12:20:48Z</time>
      </trkpt>
      <trkpt lat="43.1177" lon="5.92974">
        <ele>-3.23</ele>
        <time>2019-05-31T12:21:11Z</time>
      </trkpt>
      <trkpt lat="43.1177" lon="5.92974">
        <ele>-4.19</ele>
        <time>2019-05-31T12:21:33Z</time>
      </trkpt>
      <trkpt lat="43.11769" lon="5.92975">
        <ele>-3.71</ele>
        <time>2019-05-31T12:21:57Z</time>
      </trkpt>
      <trkpt lat="43.11769" lon="5.92974">
        <ele>-3.71</ele>
        <time>2019-05-31T12:22:22Z</time>
      </trkpt>
      <trkpt lat="43.11769" lon="5.92974">
        <ele>-3.71</ele>
        <time>2019-05-31T12:22:48Z</time>
      </trkpt>
      <trkpt lat="43.1177" lon="5.92973">
        <ele>-3.71</ele>
        <time>2019-05-31T12:23:20Z</time>
      </trkpt>
      <trkpt lat="43.1177" lon="5.92973">
        <ele>-4.19</ele>
        <time>2019-05-31T12:23:39Z</time>
      </trkpt>
      <trkpt lat="43.1177" lon="5.92972">
        <ele>-4.67</ele>
        <time>2019-05-31T12:23:51Z</time>
      </trkpt>
      <trkpt lat="43.11771" lon="5.92972">
        <ele>-4.67</ele>
        <time>2019-05-31T12:24:04Z</time>
      </trkpt>
      <trkpt lat="43.11772" lon="5.92971">
        <ele>-4.19</ele>
        <time>2019-05-31T12:24:27Z</time>
      </trkpt>
      <trkpt lat="43.11773" lon="5.92971">
        <ele>-3.71</ele>
        <time>2019-05-31T12:24:58Z</time>
      </trkpt>
      <trkpt lat="43.11774" lon="5.92972">
        <ele>-4.19</ele>
        <time>2019-05-31T12:25:21Z</time>
      </trkpt>
      <trkpt lat="43.11774" lon="5.92972">
        <ele>-5.15</ele>
        <time>2019-05-31T12:25:40Z</time>
      </trkpt>
      <trkpt lat="43.11774" lon="5.92971">
        <ele>-5.15</ele>
        <time>2019-05-31T12:26:05Z</time>
      </trkpt>
      <trkpt lat="43.11774" lon="5.9297">
        <ele>-4.19</ele>
        <time>2019-05-31T12:26:35Z</time>
      </trkpt>
      <trkpt lat="43.11774" lon="5.92969">
        <ele>-4.19</ele>
        <time>2019-05-31T12:26:58Z</time>
      </trkpt>
      <trkpt lat="43.11774" lon="5.9297">
        <ele>-4.19</ele>
        <time>2019-05-31T12:27:23Z</time>
      </trkpt>
      <trkpt lat="43.11774" lon="5.9297">
        <ele>-4.67</ele>
        <time>2019-05-31T12:27:49Z</time>
      </trkpt>
      <trkpt lat="43.11773" lon="5.9297">
        <ele>-4.19</ele>
        <time>2019-05-31T12:28:12Z</time>
      </trkpt>
      <trkpt lat="43.11772" lon="5.9297">
        <ele>-3.71</ele>
        <time>2019-05-31T12:28:36Z</time>
      </trkpt>
      <trkpt lat="43.11772" lon="5.9297">
        <ele>-3.23</ele>
        <time>2019-05-31T12:28:57Z</time>
      </trkpt>
      <trkpt lat="43.11773" lon="5.92971">
        <ele>-2.75</ele>
        <time>2019-05-31T12:29:16Z</time>
      </trkpt>
      <trkpt lat="43.11773" lon="5.92971">
        <ele>-1.79</ele>
        <time>2019-05-31T12:29:40Z</time>
      </trkpt>
      <trkpt lat="43.11774" lon="5.92971">
        <ele>-1.79</ele>
        <time>2019-05-31T12:30:04Z</time>
      </trkpt>
      <trkpt lat="43.11774" lon="5.92972">
        <ele>-2.27</ele>
        <time>2019-05-31T12:30:29Z</time>
      </trkpt>
      <trkpt lat="43.11779" lon="5.92967">
        <ele>-2.75</ele>
        <time>2019-05-31T12:30:44Z</time>
      </trkpt>
      <trkpt lat="43.11779" lon="5.92926">
        <ele>-5.15</ele>
        <time>2019-05-31T12:31:02Z</time>
      </trkpt>
      <trkpt lat="43.11752" lon="5.9289">
        <ele>-7.07</ele>
        <time>2019-05-31T12:31:25Z</time>
      </trkpt>
      <trkpt lat="43.11727" lon="5.92861">
        <ele>-8.51</ele>
        <time>2019-05-31T12:31:41Z</time>
      </trkpt>
      <trkpt lat="43.11697" lon="5.92826">
        <ele>-9</ele>
        <time>2019-05-31T12:32:01Z</time>
      </trkpt>
      <trkpt lat="43.11658" lon="5.92776">
        <ele>-7.07</ele>
        <time>2019-05-31T12:32:27Z</time>
      </trkpt>
      <trkpt lat="43.11618" lon="5.92743">
        <ele>-6.11</ele>
        <time>2019-05-31T12:32:49Z</time>
      </trkpt>
      <trkpt lat="43.11583" lon="5.92711">
        <ele>-6.59</ele>
        <time>2019-05-31T12:33:09Z</time>
      </trkpt>
      <trkpt lat="43.11548" lon="5.9269">
        <ele>-5.63</ele>
        <time>2019-05-31T12:33:28Z</time>
      </trkpt>
      <trkpt lat="43.11515" lon="5.92679">
        <ele>-5.15</ele>
        <time>2019-05-31T12:33:45Z</time>
      </trkpt>
      <trkpt lat="43.11486" lon="5.92673">
        <ele>-4.19</ele>
        <time>2019-05-31T12:34:00Z</time>
      </trkpt>
      <trkpt lat="43.11453" lon="5.92677">
        <ele>-4.19</ele>
        <time>2019-05-31T12:34:16Z</time>
      </trkpt>
      <trkpt lat="43.11431" lon="5.92707">
        <ele>-5.15</ele>
        <time>2019-05-31T12:34:35Z</time>
      </trkpt>
      <trkpt lat="43.11416" lon="5.92733">
        <ele>-5.15</ele>
        <time>2019-05-31T12:34:55Z</time>
      </trkpt>
      <trkpt lat="43.11402" lon="5.92754">
        <ele>-5.63</ele>
        <time>2019-05-31T12:35:15Z</time>
      </trkpt>
      <trkpt lat="43.11391" lon="5.92772">
        <ele>-5.15</ele>
        <time>2019-05-31T12:35:33Z</time>
      </trkpt>
      <trkpt lat="43.1138" lon="5.92784">
        <ele>-4.67</ele>
        <time>2019-05-31T12:35:49Z</time>
      </trkpt>
      <trkpt lat="43.11373" lon="5.92782">
        <ele>-4.19</ele>
        <time>2019-05-31T12:35:57Z</time>
      </trkpt>
      <trkpt lat="43.11354" lon="5.92754">
        <ele>-4.19</ele>
        <time>2019-05-31T12:36:20Z</time>
      </trkpt>
      <trkpt lat="43.11334" lon="5.92718">
        <ele>-5.15</ele>
        <time>2019-05-31T12:36:42Z</time>
      </trkpt>
      <trkpt lat="43.11308" lon="5.92677">
        <ele>-4.67</ele>
        <time>2019-05-31T12:37:05Z</time>
      </trkpt>
      <trkpt lat="43.11284" lon="5.92619">
        <ele>-4.19</ele>
        <time>2019-05-31T12:37:27Z</time>
      </trkpt>
      <trkpt lat="43.1126" lon="5.92562">
        <ele>-4.19</ele>
        <time>2019-05-31T12:37:47Z</time>
      </trkpt>
      <trkpt lat="43.11237" lon="5.92503">
        <ele>-4.19</ele>
        <time>2019-05-31T12:38:08Z</time>
      </trkpt>
      <trkpt lat="43.11208" lon="5.92456">
        <ele>-5.15</ele>
        <time>2019-05-31T12:38:28Z</time>
      </trkpt>
      <trkpt lat="43.11174" lon="5.92411">
        <ele>-5.15</ele>
        <time>2019-05-31T12:38:47Z</time>
      </trkpt>
      <trkpt lat="43.11138" lon="5.92369">
        <ele>-4.19</ele>
        <time>2019-05-31T12:39:04Z</time>
      </trkpt>
      <trkpt lat="43.11098" lon="5.92328">
        <ele>-4.19</ele>
        <time>2019-05-31T12:39:23Z</time>
      </trkpt>
      <trkpt lat="43.11058" lon="5.9229">
        <ele>-2.75</ele>
        <time>2019-05-31T12:39:41Z</time>
      </trkpt>
      <trkpt lat="43.11013" lon="5.9225">
        <ele>-3.23</ele>
        <time>2019-05-31T12:40:00Z</time>
      </trkpt>
      <trkpt lat="43.10968" lon="5.92212">
        <ele>-3.71</ele>
        <time>2019-05-31T12:40:20Z</time>
      </trkpt>
      <trkpt lat="43.10929" lon="5.92182">
        <ele>-3.23</ele>
        <time>2019-05-31T12:40:36Z</time>
      </trkpt>
      <trkpt lat="43.10894" lon="5.92156">
        <ele>-2.75</ele>
        <time>2019-05-31T12:40:49Z</time>
      </trkpt>
      <trkpt lat="43.10858" lon="5.92129">
        <ele>-3.23</ele>
        <time>2019-05-31T12:41:04Z</time>
      </trkpt>
      <trkpt lat="43.10823" lon="5.92101">
        <ele>-3.23</ele>
        <time>2019-05-31T12:41:19Z</time>
      </trkpt>
      <trkpt lat="43.10786" lon="5.92075">
        <ele>-4.19</ele>
        <time>2019-05-31T12:41:35Z</time>
      </trkpt>
      <trkpt lat="43.10749" lon="5.92049">
        <ele>-3.71</ele>
        <time>2019-05-31T12:41:50Z</time>
      </trkpt>
      <trkpt lat="43.10718" lon="5.92018">
        <ele>-2.75</ele>
        <time>2019-05-31T12:42:03Z</time>
      </trkpt>
      <trkpt lat="43.10706" lon="5.92009">
        <ele>-3.23</ele>
        <time>2019-05-31T12:42:08Z</time>
      </trkpt>
      <trkpt lat="43.10683" lon="5.91992">
        <ele>-3.71</ele>
        <time>2019-05-31T12:42:17Z</time>
      </trkpt>
      <trkpt lat="43.1065" lon="5.91965">
        <ele>-3.23</ele>
        <time>2019-05-31T12:42:31Z</time>
      </trkpt>
      <trkpt lat="43.10596" lon="5.91927">
        <ele>-4.19</ele>
        <time>2019-05-31T12:42:53Z</time>
      </trkpt>
      <trkpt lat="43.10556" lon="5.91894">
        <ele>-3.71</ele>
        <time>2019-05-31T12:43:10Z</time>
      </trkpt>
      <trkpt lat="43.10513" lon="5.91857">
        <ele>-3.23</ele>
        <time>2019-05-31T12:43:29Z</time>
      </trkpt>
      <trkpt lat="43.10469" lon="5.91834">
        <ele>-3.71</ele>
        <time>2019-05-31T12:43:47Z</time>
      </trkpt>
      <trkpt lat="43.10423" lon="5.91824">
        <ele>-3.71</ele>
        <time>2019-05-31T12:44:06Z</time>
      </trkpt>
      <trkpt lat="43.10383" lon="5.91821">
        <ele>-4.19</ele>
        <time>2019-05-31T12:44:23Z</time>
      </trkpt>
      <trkpt lat="43.10347" lon="5.91827">
        <ele>-4.19</ele>
        <time>2019-05-31T12:44:38Z</time>
      </trkpt>
      <trkpt lat="43.10313" lon="5.9183">
        <ele>-5.15</ele>
        <time>2019-05-31T12:44:53Z</time>
      </trkpt>
      <trkpt lat="43.10264" lon="5.91837">
        <ele>-5.15</ele>
        <time>2019-05-31T12:45:13Z</time>
      </trkpt>
      <trkpt lat="43.10222" lon="5.91848">
        <ele>-4.67</ele>
        <time>2019-05-31T12:45:30Z</time>
      </trkpt>
      <trkpt lat="43.10176" lon="5.91862">
        <ele>-4.19</ele>
        <time>2019-05-31T12:45:50Z</time>
      </trkpt>
      <trkpt lat="43.10137" lon="5.91866">
        <ele>-5.15</ele>
        <time>2019-05-31T12:46:07Z</time>
      </trkpt>
      <trkpt lat="43.10093" lon="5.91882">
        <ele>-4.19</ele>
        <time>2019-05-31T12:46:26Z</time>
      </trkpt>
      <trkpt lat="43.10065" lon="5.91893">
        <ele>-4.19</ele>
        <time>2019-05-31T12:46:40Z</time>
      </trkpt>
      <trkpt lat="43.10035" lon="5.919">
        <ele>-4.67</ele>
        <time>2019-05-31T12:46:53Z</time>
      </trkpt>
      <trkpt lat="43.1" lon="5.91909">
        <ele>-3.71</ele>
        <time>2019-05-31T12:47:07Z</time>
      </trkpt>
      <trkpt lat="43.09961" lon="5.91918">
        <ele>-4.19</ele>
        <time>2019-05-31T12:47:22Z</time>
      </trkpt>
      <trkpt lat="43.0992" lon="5.91924">
        <ele>-4.19</ele>
        <time>2019-05-31T12:47:37Z</time>
      </trkpt>
      <trkpt lat="43.09869" lon="5.91928">
        <ele>-4.19</ele>
        <time>2019-05-31T12:47:55Z</time>
      </trkpt>
      <trkpt lat="43.0981" lon="5.91933">
        <ele>-5.15</ele>
        <time>2019-05-31T12:48:15Z</time>
      </trkpt>
      <trkpt lat="43.09748" lon="5.9194">
        <ele>-5.63</ele>
        <time>2019-05-31T12:48:36Z</time>
      </trkpt>
      <trkpt lat="43.09704" lon="5.91949">
        <ele>-5.15</ele>
        <time>2019-05-31T12:48:52Z</time>
      </trkpt>
      <trkpt lat="43.09652" lon="5.91956">
        <ele>-5.15</ele>
        <time>2019-05-31T12:49:11Z</time>
      </trkpt>
      <trkpt lat="43.09597" lon="5.91963">
        <ele>-5.63</ele>
        <time>2019-05-31T12:49:31Z</time>
      </trkpt>
      <trkpt lat="43.09552" lon="5.91967">
        <ele>-5.15</ele>
        <time>2019-05-31T12:49:47Z</time>
      </trkpt>
      <trkpt lat="43.09515" lon="5.91971">
        <ele>-4.67</ele>
        <time>2019-05-31T12:50:01Z</time>
      </trkpt>
      <trkpt lat="43.09482" lon="5.91976">
        <ele>-3.71</ele>
        <time>2019-05-31T12:50:14Z</time>
      </trkpt>
      <trkpt lat="43.09455" lon="5.91981">
        <ele>-3.71</ele>
        <time>2019-05-31T12:50:26Z</time>
      </trkpt>
      <trkpt lat="43.0943" lon="5.91985">
        <ele>-3.23</ele>
        <time>2019-05-31T12:50:38Z</time>
      </trkpt>
      <trkpt lat="43.094" lon="5.91985">
        <ele>-4.19</ele>
        <time>2019-05-31T12:50:52Z</time>
      </trkpt>
      <trkpt lat="43.09356" lon="5.91989">
        <ele>-3.71</ele>
        <time>2019-05-31T12:51:13Z</time>
      </trkpt>
      <trkpt lat="43.09304" lon="5.91996">
        <ele>-2.75</ele>
        <time>2019-05-31T12:51:37Z</time>
      </trkpt>
      <trkpt lat="43.09267" lon="5.92003">
        <ele>-3.23</ele>
        <time>2019-05-31T12:51:56Z</time>
      </trkpt>
      <trkpt lat="43.09204" lon="5.9202">
        <ele>-3.71</ele>
        <time>2019-05-31T12:52:24Z</time>
      </trkpt>
      <trkpt lat="43.09183" lon="5.92027">
        <ele>-3.71</ele>
        <time>2019-05-31T12:52:35Z</time>
      </trkpt>
      <trkpt lat="43.09152" lon="5.92029">
        <ele>-4.19</ele>
        <time>2019-05-31T12:52:52Z</time>
      </trkpt>
      <trkpt lat="43.09116" lon="5.92029">
        <ele>-5.15</ele>
        <time>2019-05-31T12:53:16Z</time>
      </trkpt>
      <trkpt lat="43.0909" lon="5.9201">
        <ele>-4.19</ele>
        <time>2019-05-31T12:53:34Z</time>
      </trkpt>
      <trkpt lat="43.0905" lon="5.91989">
        <ele>-3.71</ele>
        <time>2019-05-31T12:53:57Z</time>
      </trkpt>
      <trkpt lat="43.09023" lon="5.91984">
        <ele>-3.71</ele>
        <time>2019-05-31T12:54:12Z</time>
      </trkpt>
      <trkpt lat="43.08997" lon="5.91976">
        <ele>-4.19</ele>
        <time>2019-05-31T12:54:26Z</time>
      </trkpt>
      <trkpt lat="43.08965" lon="5.9197">
        <ele>-5.15</ele>
        <time>2019-05-31T12:54:43Z</time>
      </trkpt>
      <trkpt lat="43.08916" lon="5.91959">
        <ele>-5.63</ele>
        <time>2019-05-31T12:55:05Z</time>
      </trkpt>
      <trkpt lat="43.08869" lon="5.91945">
        <ele>-5.15</ele>
        <time>2019-05-31T12:55:24Z</time>
      </trkpt>
      <trkpt lat="43.08824" lon="5.91928">
        <ele>-5.15</ele>
        <time>2019-05-31T12:55:43Z</time>
      </trkpt>
      <trkpt lat="43.08784" lon="5.91928">
        <ele>-4.67</ele>
        <time>2019-05-31T12:56:01Z</time>
      </trkpt>
      <trkpt lat="43.08785" lon="5.91952">
        <ele>-4.19</ele>
        <time>2019-05-31T12:56:13Z</time>
      </trkpt>
      <trkpt lat="43.08795" lon="5.91989">
        <ele>-3.71</ele>
        <time>2019-05-31T12:56:31Z</time>
      </trkpt>
      <trkpt lat="43.08809" lon="5.92036">
        <ele>-4.19</ele>
        <time>2019-05-31T12:56:48Z</time>
      </trkpt>
      <trkpt lat="43.08818" lon="5.92094">
        <ele>-4.19</ele>
        <time>2019-05-31T12:57:03Z</time>
      </trkpt>
      <trkpt lat="43.08819" lon="5.92162">
        <ele>-3.71</ele>
        <time>2019-05-31T12:57:20Z</time>
      </trkpt>
      <trkpt lat="43.08813" lon="5.92228">
        <ele>-2.27</ele>
        <time>2019-05-31T12:57:39Z</time>
      </trkpt>
      <trkpt lat="43.08809" lon="5.9228">
        <ele>-2.75</ele>
        <time>2019-05-31T12:57:57Z</time>
      </trkpt>
      <trkpt lat="43.08805" lon="5.92336">
        <ele>-2.27</ele>
        <time>2019-05-31T12:58:15Z</time>
      </trkpt>
      <trkpt lat="43.08814" lon="5.92387">
        <ele>-3.23</ele>
        <time>2019-05-31T12:58:31Z</time>
      </trkpt>
      <trkpt lat="43.08834" lon="5.92456">
        <ele>-3.71</ele>
        <time>2019-05-31T12:58:50Z</time>
      </trkpt>
      <trkpt lat="43.08848" lon="5.92511">
        <ele>-3.23</ele>
        <time>2019-05-31T12:59:04Z</time>
      </trkpt>
      <trkpt lat="43.08856" lon="5.92567">
        <ele>-3.23</ele>
        <time>2019-05-31T12:59:18Z</time>
      </trkpt>
      <trkpt lat="43.08861" lon="5.9263">
        <ele>-3.71</ele>
        <time>2019-05-31T12:59:34Z</time>
      </trkpt>
      <trkpt lat="43.08862" lon="5.92686">
        <ele>-2.75</ele>
        <time>2019-05-31T12:59:48Z</time>
      </trkpt>
      <trkpt lat="43.08863" lon="5.92746">
        <ele>-2.75</ele>
        <time>2019-05-31T13:00:05Z</time>
      </trkpt>
      <trkpt lat="43.08862" lon="5.92783">
        <ele>-2.75</ele>
        <time>2019-05-31T13:00:17Z</time>
      </trkpt>
      <trkpt lat="43.08864" lon="5.9282">
        <ele>-1.79</ele>
        <time>2019-05-31T13:00:30Z</time>
      </trkpt>
      <trkpt lat="43.0887" lon="5.92853">
        <ele>-2.75</ele>
        <time>2019-05-31T13:00:42Z</time>
      </trkpt>
      <trkpt lat="43.08879" lon="5.92898">
        <ele>-3.71</ele>
        <time>2019-05-31T13:00:57Z</time>
      </trkpt>
      <trkpt lat="43.08891" lon="5.92933">
        <ele>-2.75</ele>
        <time>2019-05-31T13:01:08Z</time>
      </trkpt>
      <trkpt lat="43.08907" lon="5.92987">
        <ele>-2.75</ele>
        <time>2019-05-31T13:01:23Z</time>
      </trkpt>
      <trkpt lat="43.08927" lon="5.93042">
        <ele>-3.71</ele>
        <time>2019-05-31T13:01:37Z</time>
      </trkpt>
      <trkpt lat="43.08945" lon="5.93099">
        <ele>-3.23</ele>
        <time>2019-05-31T13:01:51Z</time>
      </trkpt>
      <trkpt lat="43.08953" lon="5.93132">
        <ele>-2.75</ele>
        <time>2019-05-31T13:01:59Z</time>
      </trkpt>
      <trkpt lat="43.08963" lon="5.93168">
        <ele>-2.75</ele>
        <time>2019-05-31T13:02:08Z</time>
      </trkpt>
      <trkpt lat="43.08975" lon="5.93216">
        <ele>-2.27</ele>
        <time>2019-05-31T13:02:20Z</time>
      </trkpt>
      <trkpt lat="43.08991" lon="5.9327">
        <ele>-3.23</ele>
        <time>2019-05-31T13:02:34Z</time>
      </trkpt>
      <trkpt lat="43.09008" lon="5.93328">
        <ele>-3.23</ele>
        <time>2019-05-31T13:02:49Z</time>
      </trkpt>
      <trkpt lat="43.09024" lon="5.93384">
        <ele>-3.23</ele>
        <time>2019-05-31T13:03:03Z</time>
      </trkpt>
      <trkpt lat="43.09033" lon="5.93421">
        <ele>-3.23</ele>
        <time>2019-05-31T13:03:12Z</time>
      </trkpt>
      <trkpt lat="43.0904" lon="5.93445">
        <ele>-3.23</ele>
        <time>2019-05-31T13:03:18Z</time>
      </trkpt>
      <trkpt lat="43.09058" lon="5.93486">
        <ele>-2.75</ele>
        <time>2019-05-31T13:03:28Z</time>
      </trkpt>
      <trkpt lat="43.09074" lon="5.93526">
        <ele>-2.27</ele>
        <time>2019-05-31T13:03:38Z</time>
      </trkpt>
      <trkpt lat="43.09089" lon="5.9357">
        <ele>-2.75</ele>
        <time>2019-05-31T13:03:49Z</time>
      </trkpt>
      <trkpt lat="43.091" lon="5.93611">
        <ele>-2.75</ele>
        <time>2019-05-31T13:03:59Z</time>
      </trkpt>
      <trkpt lat="43.09111" lon="5.93646">
        <ele>-2.75</ele>
        <time>2019-05-31T13:04:08Z</time>
      </trkpt>
      <trkpt lat="43.09121" lon="5.93689">
        <ele>-2.75</ele>
        <time>2019-05-31T13:04:19Z</time>
      </trkpt>
      <trkpt lat="43.09133" lon="5.93739">
        <ele>-3.71</ele>
        <time>2019-05-31T13:04:31Z</time>
      </trkpt>
      <trkpt lat="43.09143" lon="5.93784">
        <ele>-3.71</ele>
        <time>2019-05-31T13:04:42Z</time>
      </trkpt>
      <trkpt lat="43.09152" lon="5.93825">
        <ele>-3.71</ele>
        <time>2019-05-31T13:04:52Z</time>
      </trkpt>
      <trkpt lat="43.09162" lon="5.93869">
        <ele>-3.71</ele>
        <time>2019-05-31T13:05:03Z</time>
      </trkpt>
      <trkpt lat="43.0917" lon="5.93909">
        <ele>-3.71</ele>
        <time>2019-05-31T13:05:13Z</time>
      </trkpt>
      <trkpt lat="43.09177" lon="5.93941">
        <ele>-3.23</ele>
        <time>2019-05-31T13:05:21Z</time>
      </trkpt>
      <trkpt lat="43.09184" lon="5.93988">
        <ele>-2.27</ele>
        <time>2019-05-31T13:05:33Z</time>
      </trkpt>
      <trkpt lat="43.09189" lon="5.94019">
        <ele>-1.79</ele>
        <time>2019-05-31T13:05:41Z</time>
      </trkpt>
      <trkpt lat="43.09193" lon="5.94054">
        <ele>-2.27</ele>
        <time>2019-05-31T13:05:50Z</time>
      </trkpt>
      <trkpt lat="43.09198" lon="5.94097">
        <ele>-3.23</ele>
        <time>2019-05-31T13:06:01Z</time>
      </trkpt>
      <trkpt lat="43.09201" lon="5.94131">
        <ele>-3.71</ele>
        <time>2019-05-31T13:06:10Z</time>
      </trkpt>
      <trkpt lat="43.09207" lon="5.9417">
        <ele>-3.71</ele>
        <time>2019-05-31T13:06:20Z</time>
      </trkpt>
      <trkpt lat="43.09219" lon="5.94214">
        <ele>-3.23</ele>
        <time>2019-05-31T13:06:32Z</time>
      </trkpt>
      <trkpt lat="43.09233" lon="5.94266">
        <ele>-3.71</ele>
        <time>2019-05-31T13:06:45Z</time>
      </trkpt>
      <trkpt lat="43.09244" lon="5.94311">
        <ele>-2.27</ele>
        <time>2019-05-31T13:06:56Z</time>
      </trkpt>
      <trkpt lat="43.09256" lon="5.94351">
        <ele>-3.23</ele>
        <time>2019-05-31T13:07:06Z</time>
      </trkpt>
      <trkpt lat="43.09271" lon="5.94398">
        <ele>-3.23</ele>
        <time>2019-05-31T13:07:18Z</time>
      </trkpt>
      <trkpt lat="43.09275" lon="5.9441">
        <ele>-3.23</ele>
        <time>2019-05-31T13:07:21Z</time>
      </trkpt>
      <trkpt lat="43.09284" lon="5.94443">
        <ele>-3.23</ele>
        <time>2019-05-31T13:07:29Z</time>
      </trkpt>
      <trkpt lat="43.09292" lon="5.94475">
        <ele>-3.23</ele>
        <time>2019-05-31T13:07:37Z</time>
      </trkpt>
      <trkpt lat="43.093" lon="5.94508">
        <ele>-2.27</ele>
        <time>2019-05-31T13:07:45Z</time>
      </trkpt>
      <trkpt lat="43.09312" lon="5.94554">
        <ele>-1.79</ele>
        <time>2019-05-31T13:07:56Z</time>
      </trkpt>
      <trkpt lat="43.09323" lon="5.94595">
        <ele>-1.79</ele>
        <time>2019-05-31T13:08:06Z</time>
      </trkpt>
      <trkpt lat="43.09335" lon="5.94642">
        <ele>-2.75</ele>
        <time>2019-05-31T13:08:17Z</time>
      </trkpt>
      <trkpt lat="43.0935" lon="5.94699">
        <ele>-3.23</ele>
        <time>2019-05-31T13:08:31Z</time>
      </trkpt>
      <trkpt lat="43.09363" lon="5.94746">
        <ele>-2.75</ele>
        <time>2019-05-31T13:08:43Z</time>
      </trkpt>
      <trkpt lat="43.09369" lon="5.94787">
        <ele>-2.27</ele>
        <time>2019-05-31T13:08:53Z</time>
      </trkpt>
      <trkpt lat="43.09375" lon="5.94821">
        <ele>-2.75</ele>
        <time>2019-05-31T13:09:02Z</time>
      </trkpt>
      <trkpt lat="43.09378" lon="5.9486">
        <ele>-2.75</ele>
        <time>2019-05-31T13:09:12Z</time>
      </trkpt>
      <trkpt lat="43.09383" lon="5.94893">
        <ele>-3.23</ele>
        <time>2019-05-31T13:09:21Z</time>
      </trkpt>
      <trkpt lat="43.09386" lon="5.94918">
        <ele>-3.23</ele>
        <time>2019-05-31T13:09:28Z</time>
      </trkpt>
      <trkpt lat="43.09384" lon="5.94923">
        <ele>-3.23</ele>
        <time>2019-05-31T13:09:30Z</time>
      </trkpt>
      <trkpt lat="43.09368" lon="5.94916">
        <ele>-2.75</ele>
        <time>2019-05-31T13:09:40Z</time>
      </trkpt>
      <trkpt lat="43.0935" lon="5.94909">
        <ele>-3.23</ele>
        <time>2019-05-31T13:09:50Z</time>
      </trkpt>
      <trkpt lat="43.09336" lon="5.94903">
        <ele>-3.23</ele>
        <time>2019-05-31T13:09:58Z</time>
      </trkpt>
      <trkpt lat="43.09314" lon="5.94892">
        <ele>-3.23</ele>
        <time>2019-05-31T13:10:09Z</time>
      </trkpt>
      <trkpt lat="43.09286" lon="5.94885">
        <ele>-4.19</ele>
        <time>2019-05-31T13:10:23Z</time>
      </trkpt>
      <trkpt lat="43.0926" lon="5.94869">
        <ele>-4.67</ele>
        <time>2019-05-31T13:10:36Z</time>
      </trkpt>
      <trkpt lat="43.09234" lon="5.9485">
        <ele>-3.71</ele>
        <time>2019-05-31T13:10:47Z</time>
      </trkpt>
      <trkpt lat="43.092" lon="5.94835">
        <ele>-4.19</ele>
        <time>2019-05-31T13:11:00Z</time>
      </trkpt>
      <trkpt lat="43.09177" lon="5.94825">
        <ele>-4.67</ele>
        <time>2019-05-31T13:11:09Z</time>
      </trkpt>
      <trkpt lat="43.0915" lon="5.94815">
        <ele>-5.15</ele>
        <time>2019-05-31T13:11:20Z</time>
      </trkpt>
      <trkpt lat="43.09123" lon="5.94808">
        <ele>-4.19</ele>
        <time>2019-05-31T13:11:31Z</time>
      </trkpt>
      <trkpt lat="43.09101" lon="5.94801">
        <ele>-3.71</ele>
        <time>2019-05-31T13:11:40Z</time>
      </trkpt>
      <trkpt lat="43.09078" lon="5.94798">
        <ele>-4.19</ele>
        <time>2019-05-31T13:11:50Z</time>
      </trkpt>
      <trkpt lat="43.09052" lon="5.94795">
        <ele>-4.19</ele>
        <time>2019-05-31T13:12:02Z</time>
      </trkpt>
      <trkpt lat="43.09025" lon="5.94787">
        <ele>-4.19</ele>
        <time>2019-05-31T13:12:13Z</time>
      </trkpt>
      <trkpt lat="43.08996" lon="5.9478">
        <ele>-4.67</ele>
        <time>2019-05-31T13:12:25Z</time>
      </trkpt>
      <trkpt lat="43.08971" lon="5.94773">
        <ele>-5.15</ele>
        <time>2019-05-31T13:12:35Z</time>
      </trkpt>
      <trkpt lat="43.08941" lon="5.94767">
        <ele>-5.15</ele>
        <time>2019-05-31T13:12:47Z</time>
      </trkpt>
      <trkpt lat="43.08913" lon="5.94757">
        <ele>-5.15</ele>
        <time>2019-05-31T13:12:58Z</time>
      </trkpt>
      <trkpt lat="43.08884" lon="5.94748">
        <ele>-6.59</ele>
        <time>2019-05-31T13:13:09Z</time>
      </trkpt>
      <trkpt lat="43.08861" lon="5.94742">
        <ele>-6.11</ele>
        <time>2019-05-31T13:13:18Z</time>
      </trkpt>
      <trkpt lat="43.0883" lon="5.94731">
        <ele>-4.67</ele>
        <time>2019-05-31T13:13:30Z</time>
      </trkpt>
      <trkpt lat="43.08807" lon="5.94722">
        <ele>-4.19</ele>
        <time>2019-05-31T13:13:39Z</time>
      </trkpt>
      <trkpt lat="43.08783" lon="5.94711">
        <ele>-3.71</ele>
        <time>2019-05-31T13:13:48Z</time>
      </trkpt>
      <trkpt lat="43.08755" lon="5.94702">
        <ele>-5.15</ele>
        <time>2019-05-31T13:13:58Z</time>
      </trkpt>
      <trkpt lat="43.08733" lon="5.94695">
        <ele>-5.15</ele>
        <time>2019-05-31T13:14:07Z</time>
      </trkpt>
      <trkpt lat="43.0872" lon="5.94691">
        <ele>-5.15</ele>
        <time>2019-05-31T13:14:12Z</time>
      </trkpt>
      <trkpt lat="43.08685" lon="5.94681">
        <ele>-4.67</ele>
        <time>2019-05-31T13:14:26Z</time>
      </trkpt>
      <trkpt lat="43.08653" lon="5.94674">
        <ele>-4.67</ele>
        <time>2019-05-31T13:14:39Z</time>
      </trkpt>
      <trkpt lat="43.08637" lon="5.94685">
        <ele>-4.67</ele>
        <time>2019-05-31T13:14:49Z</time>
      </trkpt>
      <trkpt lat="43.0864" lon="5.94706">
        <ele>-3.23</ele>
        <time>2019-05-31T13:14:59Z</time>
      </trkpt>
      <trkpt lat="43.08643" lon="5.94728">
        <ele>-2.27</ele>
        <time>2019-05-31T13:15:10Z</time>
      </trkpt>
      <trkpt lat="43.08646" lon="5.9475">
        <ele>-2.75</ele>
        <time>2019-05-31T13:15:20Z</time>
      </trkpt>
      <trkpt lat="43.0865" lon="5.94773">
        <ele>-2.27</ele>
        <time>2019-05-31T13:15:30Z</time>
      </trkpt>
      <trkpt lat="43.08652" lon="5.94797">
        <ele>-3.23</ele>
        <time>2019-05-31T13:15:40Z</time>
      </trkpt>
      <trkpt lat="43.08655" lon="5.9482">
        <ele>-4.19</ele>
        <time>2019-05-31T13:15:50Z</time>
      </trkpt>
      <trkpt lat="43.08657" lon="5.94846">
        <ele>-4.67</ele>
        <time>2019-05-31T13:16:01Z</time>
      </trkpt>
      <trkpt lat="43.08658" lon="5.94853">
        <ele>-5.15</ele>
        <time>2019-05-31T13:16:04Z</time>
      </trkpt>
      <trkpt lat="43.0866" lon="5.94874">
        <ele>-5.63</ele>
        <time>2019-05-31T13:16:13Z</time>
      </trkpt>
      <trkpt lat="43.08661" lon="5.94882">
        <ele>-5.63</ele>
        <time>2019-05-31T13:16:17Z</time>
      </trkpt>
      <trkpt lat="43.08664" lon="5.94907">
        <ele>-6.59</ele>
        <time>2019-05-31T13:16:27Z</time>
      </trkpt>
      <trkpt lat="43.08673" lon="5.94938">
        <ele>-7.07</ele>
        <time>2019-05-31T13:16:39Z</time>
      </trkpt>
      <trkpt lat="43.08685" lon="5.94972">
        <ele>-7.55</ele>
        <time>2019-05-31T13:16:51Z</time>
      </trkpt>
      <trkpt lat="43.08692" lon="5.95001">
        <ele>-7.55</ele>
        <time>2019-05-31T13:17:01Z</time>
      </trkpt>
      <trkpt lat="43.08697" lon="5.95016">
        <ele>-7.07</ele>
        <time>2019-05-31T13:17:06Z</time>
      </trkpt>
      <trkpt lat="43.08704" lon="5.95045">
        <ele>-7.07</ele>
        <time>2019-05-31T13:17:16Z</time>
      </trkpt>
      <trkpt lat="43.08705" lon="5.95048">
        <ele>-7.07</ele>
        <time>2019-05-31T13:17:17Z</time>
      </trkpt>
      <trkpt lat="43.08714" lon="5.95087">
        <ele>-7.07</ele>
        <time>2019-05-31T13:17:30Z</time>
      </trkpt>
      <trkpt lat="43.08722" lon="5.95123">
        <ele>-7.07</ele>
        <time>2019-05-31T13:17:42Z</time>
      </trkpt>
      <trkpt lat="43.08728" lon="5.95157">
        <ele>-7.55</ele>
        <time>2019-05-31T13:17:54Z</time>
      </trkpt>
      <trkpt lat="43.08735" lon="5.9519">
        <ele>-7.55</ele>
        <time>2019-05-31T13:18:06Z</time>
      </trkpt>
      <trkpt lat="43.08744" lon="5.95225">
        <ele>-7.07</ele>
        <time>2019-05-31T13:18:18Z</time>
      </trkpt>
      <trkpt lat="43.08753" lon="5.95258">
        <ele>-7.07</ele>
        <time>2019-05-31T13:18:29Z</time>
      </trkpt>
      <trkpt lat="43.08761" lon="5.95288">
        <ele>-7.07</ele>
        <time>2019-05-31T13:18:39Z</time>
      </trkpt>
      <trkpt lat="43.08764" lon="5.95303">
        <ele>-7.07</ele>
        <time>2019-05-31T13:18:44Z</time>
      </trkpt>
      <trkpt lat="43.08771" lon="5.95335">
        <ele>-7.07</ele>
        <time>2019-05-31T13:18:55Z</time>
      </trkpt>
      <trkpt lat="43.08772" lon="5.9535">
        <ele>-7.07</ele>
        <time>2019-05-31T13:19:01Z</time>
      </trkpt>
      <trkpt lat="43.08772" lon="5.95359">
        <ele>-6.59</ele>
        <time>2019-05-31T13:19:05Z</time>
      </trkpt>
      <trkpt lat="43.08774" lon="5.95379">
        <ele>-6.11</ele>
        <time>2019-05-31T13:19:15Z</time>
      </trkpt>
      <trkpt lat="43.08779" lon="5.95393">
        <ele>-6.59</ele>
        <time>2019-05-31T13:19:22Z</time>
      </trkpt>
      <trkpt lat="43.08783" lon="5.95407">
        <ele>-7.07</ele>
        <time>2019-05-31T13:19:28Z</time>
      </trkpt>
      <trkpt lat="43.08786" lon="5.95416">
        <ele>-7.07</ele>
        <time>2019-05-31T13:19:32Z</time>
      </trkpt>
      <trkpt lat="43.08794" lon="5.95446">
        <ele>-6.59</ele>
        <time>2019-05-31T13:19:44Z</time>
      </trkpt>
      <trkpt lat="43.08796" lon="5.95457">
        <ele>-6.59</ele>
        <time>2019-05-31T13:19:48Z</time>
      </trkpt>
      <trkpt lat="43.088" lon="5.95471">
        <ele>-6.11</ele>
        <time>2019-05-31T13:19:54Z</time>
      </trkpt>
      <trkpt lat="43.08809" lon="5.95507">
        <ele>-6.11</ele>
        <time>2019-05-31T13:20:07Z</time>
      </trkpt>
      <trkpt lat="43.08813" lon="5.95524">
        <ele>-6.11</ele>
        <time>2019-05-31T13:20:13Z</time>
      </trkpt>
      <trkpt lat="43.08822" lon="5.95561">
        <ele>-5.63</ele>
        <time>2019-05-31T13:20:26Z</time>
      </trkpt>
      <trkpt lat="43.08832" lon="5.956">
        <ele>-4.67</ele>
        <time>2019-05-31T13:20:40Z</time>
      </trkpt>
      <trkpt lat="43.0884" lon="5.95629">
        <ele>-3.71</ele>
        <time>2019-05-31T13:20:51Z</time>
      </trkpt>
      <trkpt lat="43.08847" lon="5.95666">
        <ele>-4.19</ele>
        <time>2019-05-31T13:21:04Z</time>
      </trkpt>
      <trkpt lat="43.08857" lon="5.95699">
        <ele>-4.19</ele>
        <time>2019-05-31T13:21:16Z</time>
      </trkpt>
      <trkpt lat="43.08865" lon="5.9573">
        <ele>-3.71</ele>
        <time>2019-05-31T13:21:27Z</time>
      </trkpt>
      <trkpt lat="43.08871" lon="5.95755">
        <ele>-3.71</ele>
        <time>2019-05-31T13:21:36Z</time>
      </trkpt>
      <trkpt lat="43.08872" lon="5.95758">
        <ele>-3.71</ele>
        <time>2019-05-31T13:21:37Z</time>
      </trkpt>
      <trkpt lat="43.08878" lon="5.95784">
        <ele>-3.71</ele>
        <time>2019-05-31T13:21:46Z</time>
      </trkpt>
      <trkpt lat="43.08885" lon="5.95815">
        <ele>-3.71</ele>
        <time>2019-05-31T13:21:57Z</time>
      </trkpt>
      <trkpt lat="43.08894" lon="5.95843">
        <ele>-3.71</ele>
        <time>2019-05-31T13:22:07Z</time>
      </trkpt>
      <trkpt lat="43.08906" lon="5.95877">
        <ele>-2.75</ele>
        <time>2019-05-31T13:22:19Z</time>
      </trkpt>
      <trkpt lat="43.0893" lon="5.95905">
        <ele>-3.23</ele>
        <time>2019-05-31T13:22:31Z</time>
      </trkpt>
      <trkpt lat="43.08964" lon="5.95915">
        <ele>-3.23</ele>
        <time>2019-05-31T13:22:44Z</time>
      </trkpt>
      <trkpt lat="43.08985" lon="5.9593">
        <ele>-4.19</ele>
        <time>2019-05-31T13:22:54Z</time>
      </trkpt>
      <trkpt lat="43.09012" lon="5.95942">
        <ele>-3.71</ele>
        <time>2019-05-31T13:23:05Z</time>
      </trkpt>
      <trkpt lat="43.09044" lon="5.95959">
        <ele>-3.71</ele>
        <time>2019-05-31T13:23:19Z</time>
      </trkpt>
      <trkpt lat="43.09077" lon="5.95958">
        <ele>-3.71</ele>
        <time>2019-05-31T13:23:33Z</time>
      </trkpt>
      <trkpt lat="43.09111" lon="5.95956">
        <ele>-2.75</ele>
        <time>2019-05-31T13:23:49Z</time>
      </trkpt>
      <trkpt lat="43.09148" lon="5.95955">
        <ele>-1.79</ele>
        <time>2019-05-31T13:24:08Z</time>
      </trkpt>
      <trkpt lat="43.09179" lon="5.95951">
        <ele>-2.27</ele>
        <time>2019-05-31T13:24:24Z</time>
      </trkpt>
      <trkpt lat="43.09207" lon="5.95949">
        <ele>-2.75</ele>
        <time>2019-05-31T13:24:39Z</time>
      </trkpt>
      <trkpt lat="43.09241" lon="5.95942">
        <ele>-3.23</ele>
        <time>2019-05-31T13:24:58Z</time>
      </trkpt>
      <trkpt lat="43.09267" lon="5.95941">
        <ele>-2.75</ele>
        <time>2019-05-31T13:25:12Z</time>
      </trkpt>
      <trkpt lat="43.09298" lon="5.95938">
        <ele>-2.27</ele>
        <time>2019-05-31T13:25:29Z</time>
      </trkpt>
      <trkpt lat="43.09324" lon="5.95935">
        <ele>-2.75</ele>
        <time>2019-05-31T13:25:43Z</time>
      </trkpt>
      <trkpt lat="43.09356" lon="5.95931">
        <ele>-2.75</ele>
        <time>2019-05-31T13:26:00Z</time>
      </trkpt>
      <trkpt lat="43.09387" lon="5.95927">
        <ele>-2.75</ele>
        <time>2019-05-31T13:26:17Z</time>
      </trkpt>
      <trkpt lat="43.09415" lon="5.95924">
        <ele>-3.23</ele>
        <time>2019-05-31T13:26:33Z</time>
      </trkpt>
      <trkpt lat="43.09442" lon="5.9592">
        <ele>-3.71</ele>
        <time>2019-05-31T13:26:48Z</time>
      </trkpt>
      <trkpt lat="43.0947" lon="5.95915">
        <ele>-3.23</ele>
        <time>2019-05-31T13:27:04Z</time>
      </trkpt>
      <trkpt lat="43.09492" lon="5.95911">
        <ele>-3.23</ele>
        <time>2019-05-31T13:27:17Z</time>
      </trkpt>
      <trkpt lat="43.09526" lon="5.95905">
        <ele>-2.75</ele>
        <time>2019-05-31T13:27:37Z</time>
      </trkpt>
      <trkpt lat="43.09552" lon="5.95901">
        <ele>-2.75</ele>
        <time>2019-05-31T13:27:52Z</time>
      </trkpt>
      <trkpt lat="43.09583" lon="5.95897">
        <ele>-2.75</ele>
        <time>2019-05-31T13:28:09Z</time>
      </trkpt>
      <trkpt lat="43.09619" lon="5.9589">
        <ele>-2.75</ele>
        <time>2019-05-31T13:28:29Z</time>
      </trkpt>
      <trkpt lat="43.09651" lon="5.95883">
        <ele>-3.23</ele>
        <time>2019-05-31T13:28:47Z</time>
      </trkpt>
      <trkpt lat="43.09685" lon="5.95877">
        <ele>-3.23</ele>
        <time>2019-05-31T13:29:06Z</time>
      </trkpt>
      <trkpt lat="43.09714" lon="5.95872">
        <ele>-3.23</ele>
        <time>2019-05-31T13:29:21Z</time>
      </trkpt>
      <trkpt lat="43.09745" lon="5.95866">
        <ele>-3.23</ele>
        <time>2019-05-31T13:29:37Z</time>
      </trkpt>
      <trkpt lat="43.09775" lon="5.95862">
        <ele>-3.23</ele>
        <time>2019-05-31T13:29:53Z</time>
      </trkpt>
      <trkpt lat="43.09807" lon="5.95854">
        <ele>-2.75</ele>
        <time>2019-05-31T13:30:10Z</time>
      </trkpt>
      <trkpt lat="43.09837" lon="5.95841">
        <ele>-3.23</ele>
        <time>2019-05-31T13:30:27Z</time>
      </trkpt>
      <trkpt lat="43.09862" lon="5.95816">
        <ele>-2.75</ele>
        <time>2019-05-31T13:30:47Z</time>
      </trkpt>
      <trkpt lat="43.09889" lon="5.95798">
        <ele>-2.27</ele>
        <time>2019-05-31T13:31:05Z</time>
      </trkpt>
      <trkpt lat="43.09914" lon="5.95778">
        <ele>-3.71</ele>
        <time>2019-05-31T13:31:21Z</time>
      </trkpt>
      <trkpt lat="43.09941" lon="5.95749">
        <ele>-3.23</ele>
        <time>2019-05-31T13:31:41Z</time>
      </trkpt>
      <trkpt lat="43.0996" lon="5.9573">
        <ele>-3.23</ele>
        <time>2019-05-31T13:31:55Z</time>
      </trkpt>
      <trkpt lat="43.09984" lon="5.95702">
        <ele>-4.19</ele>
        <time>2019-05-31T13:32:13Z</time>
      </trkpt>
      <trkpt lat="43.10006" lon="5.95676">
        <ele>-3.71</ele>
        <time>2019-05-31T13:32:29Z</time>
      </trkpt>
      <trkpt lat="43.1003" lon="5.9565">
        <ele>-4.19</ele>
        <time>2019-05-31T13:32:47Z</time>
      </trkpt>
      <trkpt lat="43.10052" lon="5.95621">
        <ele>-4.19</ele>
        <time>2019-05-31T13:33:05Z</time>
      </trkpt>
      <trkpt lat="43.10075" lon="5.95592">
        <ele>-4.19</ele>
        <time>2019-05-31T13:33:24Z</time>
      </trkpt>
      <trkpt lat="43.10101" lon="5.95564">
        <ele>-3.71</ele>
        <time>2019-05-31T13:33:43Z</time>
      </trkpt>
      <trkpt lat="43.10128" lon="5.95541">
        <ele>-3.23</ele>
        <time>2019-05-31T13:34:01Z</time>
      </trkpt>
      <trkpt lat="43.10154" lon="5.9552">
        <ele>-3.23</ele>
        <time>2019-05-31T13:34:18Z</time>
      </trkpt>
      <trkpt lat="43.10176" lon="5.95497">
        <ele>-3.71</ele>
        <time>2019-05-31T13:34:34Z</time>
      </trkpt>
      <trkpt lat="43.10197" lon="5.95467">
        <ele>-3.71</ele>
        <time>2019-05-31T13:34:52Z</time>
      </trkpt>
      <trkpt lat="43.10212" lon="5.95439">
        <ele>-3.71</ele>
        <time>2019-05-31T13:35:08Z</time>
      </trkpt>
      <trkpt lat="43.10223" lon="5.95406">
        <ele>-3.71</ele>
        <time>2019-05-31T13:35:24Z</time>
      </trkpt>
      <trkpt lat="43.10229" lon="5.95374">
        <ele>-3.71</ele>
        <time>2019-05-31T13:35:38Z</time>
      </trkpt>
      <trkpt lat="43.10234" lon="5.95337">
        <ele>-3.23</ele>
        <time>2019-05-31T13:35:53Z</time>
      </trkpt>
      <trkpt lat="43.10239" lon="5.95302">
        <ele>-2.75</ele>
        <time>2019-05-31T13:36:06Z</time>
      </trkpt>
      <trkpt lat="43.10245" lon="5.95262">
        <ele>-3.23</ele>
        <time>2019-05-31T13:36:21Z</time>
      </trkpt>
      <trkpt lat="43.10249" lon="5.95225">
        <ele>-4.19</ele>
        <time>2019-05-31T13:36:35Z</time>
      </trkpt>
      <trkpt lat="43.10257" lon="5.95174">
        <ele>-4.19</ele>
        <time>2019-05-31T13:36:55Z</time>
      </trkpt>
      <trkpt lat="43.10266" lon="5.95121">
        <ele>-4.67</ele>
        <time>2019-05-31T13:37:15Z</time>
      </trkpt>
      <trkpt lat="43.10273" lon="5.9508">
        <ele>-5.15</ele>
        <time>2019-05-31T13:37:31Z</time>
      </trkpt>
      <trkpt lat="43.10274" lon="5.95045">
        <ele>-4.19</ele>
        <time>2019-05-31T13:37:45Z</time>
      </trkpt>
      <trkpt lat="43.10269" lon="5.95013">
        <ele>-4.19</ele>
        <time>2019-05-31T13:37:58Z</time>
      </trkpt>
      <trkpt lat="43.1026" lon="5.94985">
        <ele>-4.19</ele>
        <time>2019-05-31T13:38:10Z</time>
      </trkpt>
      <trkpt lat="43.10248" lon="5.94949">
        <ele>-3.71</ele>
        <time>2019-05-31T13:38:25Z</time>
      </trkpt>
      <trkpt lat="43.10237" lon="5.94917">
        <ele>-3.71</ele>
        <time>2019-05-31T13:38:38Z</time>
      </trkpt>
      <trkpt lat="43.10227" lon="5.94888">
        <ele>-3.23</ele>
        <time>2019-05-31T13:38:49Z</time>
      </trkpt>
      <trkpt lat="43.10215" lon="5.94853">
        <ele>-2.75</ele>
        <time>2019-05-31T13:39:02Z</time>
      </trkpt>
      <trkpt lat="43.10201" lon="5.94819">
        <ele>-2.75</ele>
        <time>2019-05-31T13:39:16Z</time>
      </trkpt>
      <trkpt lat="43.10189" lon="5.94788">
        <ele>-3.23</ele>
        <time>2019-05-31T13:39:29Z</time>
      </trkpt>
      <trkpt lat="43.10173" lon="5.9475">
        <ele>-2.75</ele>
        <time>2019-05-31T13:39:46Z</time>
      </trkpt>
      <trkpt lat="43.10172" lon="5.94747">
        <ele>-2.75</ele>
        <time>2019-05-31T13:39:47Z</time>
      </trkpt>
      <trkpt lat="43.10163" lon="5.94731">
        <ele>-2.27</ele>
        <time>2019-05-31T13:39:55Z</time>
      </trkpt>
      <trkpt lat="43.10153" lon="5.94699">
        <ele>-1.79</ele>
        <time>2019-05-31T13:40:10Z</time>
      </trkpt>
      <trkpt lat="43.10146" lon="5.94674">
        <ele>-2.75</ele>
        <time>2019-05-31T13:40:22Z</time>
      </trkpt>
      <trkpt lat="43.10143" lon="5.94663">
        <ele>-3.23</ele>
        <time>2019-05-31T13:40:28Z</time>
      </trkpt>
      <trkpt lat="43.10135" lon="5.94644">
        <ele>-3.23</ele>
        <time>2019-05-31T13:40:39Z</time>
      </trkpt>
      <trkpt lat="43.1013" lon="5.94634">
        <ele>-3.23</ele>
        <time>2019-05-31T13:40:45Z</time>
      </trkpt>
      <trkpt lat="43.10127" lon="5.94627">
        <ele>-3.23</ele>
        <time>2019-05-31T13:40:49Z</time>
      </trkpt>
      <trkpt lat="43.10125" lon="5.94622">
        <ele>-2.75</ele>
        <time>2019-05-31T13:40:52Z</time>
      </trkpt>
      <trkpt lat="43.1012" lon="5.9461">
        <ele>-2.75</ele>
        <time>2019-05-31T13:40:59Z</time>
      </trkpt>
      <trkpt lat="43.10114" lon="5.94601">
        <ele>-1.79</ele>
        <time>2019-05-31T13:41:05Z</time>
      </trkpt>
      <trkpt lat="43.10105" lon="5.94581">
        <ele>-1.79</ele>
        <time>2019-05-31T13:41:17Z</time>
      </trkpt>
      <trkpt lat="43.10103" lon="5.94577">
        <ele>-1.79</ele>
        <time>2019-05-31T13:41:19Z</time>
      </trkpt>
      <trkpt lat="43.101" lon="5.94569">
        <ele>-1.79</ele>
        <time>2019-05-31T13:41:24Z</time>
      </trkpt>
      <trkpt lat="43.10093" lon="5.94553">
        <ele>-2.27</ele>
        <time>2019-05-31T13:41:33Z</time>
      </trkpt>
      <trkpt lat="43.1009" lon="5.94547">
        <ele>-2.27</ele>
        <time>2019-05-31T13:41:37Z</time>
      </trkpt>
      <trkpt lat="43.10079" lon="5.94525">
        <ele>-1.79</ele>
        <time>2019-05-31T13:41:50Z</time>
      </trkpt>
      <trkpt lat="43.10069" lon="5.94504">
        <ele>-1.79</ele>
        <time>2019-05-31T13:42:02Z</time>
      </trkpt>
      <trkpt lat="43.10057" lon="5.94481">
        <ele>-1.79</ele>
        <time>2019-05-31T13:42:16Z</time>
      </trkpt>
      <trkpt lat="43.10045" lon="5.94457">
        <ele>-1.3</ele>
        <time>2019-05-31T13:42:30Z</time>
      </trkpt>
      <trkpt lat="43.10035" lon="5.94436">
        <ele>-1.3</ele>
        <time>2019-05-31T13:42:42Z</time>
      </trkpt>
      <trkpt lat="43.10031" lon="5.94428">
        <ele>-1.3</ele>
        <time>2019-05-31T13:42:46Z</time>
      </trkpt>
      <trkpt lat="43.10021" lon="5.94408">
        <ele>-2.75</ele>
        <time>2019-05-31T13:42:57Z</time>
      </trkpt>
      <trkpt lat="43.10014" lon="5.94395">
        <ele>-2.75</ele>
        <time>2019-05-31T13:43:04Z</time>
      </trkpt>
      <trkpt lat="43.10008" lon="5.94384">
        <ele>-2.75</ele>
        <time>2019-05-31T13:43:10Z</time>
      </trkpt>
      <trkpt lat="43.0999" lon="5.9435">
        <ele>-2.75</ele>
        <time>2019-05-31T13:43:27Z</time>
      </trkpt>
      <trkpt lat="43.09976" lon="5.94322">
        <ele>-2.75</ele>
        <time>2019-05-31T13:43:41Z</time>
      </trkpt>
      <trkpt lat="43.0996" lon="5.94295">
        <ele>-3.23</ele>
        <time>2019-05-31T13:43:55Z</time>
      </trkpt>
      <trkpt lat="43.09943" lon="5.94266">
        <ele>-2.75</ele>
        <time>2019-05-31T13:44:10Z</time>
      </trkpt>
      <trkpt lat="43.09941" lon="5.94265">
        <ele>-2.75</ele>
        <time>2019-05-31T13:44:11Z</time>
      </trkpt>
      <trkpt lat="43.09934" lon="5.94254">
        <ele>-2.75</ele>
        <time>2019-05-31T13:44:17Z</time>
      </trkpt>
      <trkpt lat="43.09928" lon="5.94247">
        <ele>-2.75</ele>
        <time>2019-05-31T13:44:21Z</time>
      </trkpt>
      <trkpt lat="43.0992" lon="5.94233">
        <ele>-2.75</ele>
        <time>2019-05-31T13:44:28Z</time>
      </trkpt>
      <trkpt lat="43.09903" lon="5.94206">
        <ele>-3.23</ele>
        <time>2019-05-31T13:44:41Z</time>
      </trkpt>
      <trkpt lat="43.09895" lon="5.94195">
        <ele>-3.23</ele>
        <time>2019-05-31T13:44:47Z</time>
      </trkpt>
      <trkpt lat="43.09879" lon="5.94173">
        <ele>-3.71</ele>
        <time>2019-05-31T13:44:58Z</time>
      </trkpt>
      <trkpt lat="43.09861" lon="5.94147">
        <ele>-3.71</ele>
        <time>2019-05-31T13:45:11Z</time>
      </trkpt>
      <trkpt lat="43.09846" lon="5.94124">
        <ele>-3.71</ele>
        <time>2019-05-31T13:45:22Z</time>
      </trkpt>
      <trkpt lat="43.09841" lon="5.94116">
        <ele>-3.71</ele>
        <time>2019-05-31T13:45:26Z</time>
      </trkpt>
      <trkpt lat="43.09834" lon="5.94107">
        <ele>-3.71</ele>
        <time>2019-05-31T13:45:31Z</time>
      </trkpt>
      <trkpt lat="43.0983" lon="5.94102">
        <ele>-3.23</ele>
        <time>2019-05-31T13:45:34Z</time>
      </trkpt>
      <trkpt lat="43.09821" lon="5.94087">
        <ele>-3.23</ele>
        <time>2019-05-31T13:45:41Z</time>
      </trkpt>
      <trkpt lat="43.098" lon="5.94057">
        <ele>-3.23</ele>
        <time>2019-05-31T13:45:56Z</time>
      </trkpt>
      <trkpt lat="43.09782" lon="5.9403">
        <ele>-3.23</ele>
        <time>2019-05-31T13:46:10Z</time>
      </trkpt>
      <trkpt lat="43.09763" lon="5.94004">
        <ele>-2.27</ele>
        <time>2019-05-31T13:46:24Z</time>
      </trkpt>
      <trkpt lat="43.09744" lon="5.93975">
        <ele>-2.27</ele>
        <time>2019-05-31T13:46:38Z</time>
      </trkpt>
      <trkpt lat="43.09722" lon="5.93941">
        <ele>-2.75</ele>
        <time>2019-05-31T13:46:55Z</time>
      </trkpt>
      <trkpt lat="43.09703" lon="5.93914">
        <ele>-3.23</ele>
        <time>2019-05-31T13:47:09Z</time>
      </trkpt>
      <trkpt lat="43.09684" lon="5.93887">
        <ele>-4.19</ele>
        <time>2019-05-31T13:47:23Z</time>
      </trkpt>
      <trkpt lat="43.09665" lon="5.93861">
        <ele>-3.71</ele>
        <time>2019-05-31T13:47:37Z</time>
      </trkpt>
      <trkpt lat="43.09646" lon="5.93834">
        <ele>-4.19</ele>
        <time>2019-05-31T13:47:51Z</time>
      </trkpt>
      <trkpt lat="43.09629" lon="5.93809">
        <ele>-4.67</ele>
        <time>2019-05-31T13:48:04Z</time>
      </trkpt>
      <trkpt lat="43.09599" lon="5.93768">
        <ele>-4.67</ele>
        <time>2019-05-31T13:48:25Z</time>
      </trkpt>
      <trkpt lat="43.09573" lon="5.93734">
        <ele>-4.67</ele>
        <time>2019-05-31T13:48:43Z</time>
      </trkpt>
      <trkpt lat="43.09555" lon="5.93709">
        <ele>-4.19</ele>
        <time>2019-05-31T13:48:56Z</time>
      </trkpt>
      <trkpt lat="43.09537" lon="5.93683">
        <ele>-4.19</ele>
        <time>2019-05-31T13:49:09Z</time>
      </trkpt>
      <trkpt lat="43.09519" lon="5.93661">
        <ele>-4.67</ele>
        <time>2019-05-31T13:49:20Z</time>
      </trkpt>
      <trkpt lat="43.09499" lon="5.93635">
        <ele>-5.63</ele>
        <time>2019-05-31T13:49:33Z</time>
      </trkpt>
      <trkpt lat="43.09479" lon="5.93609">
        <ele>-6.11</ele>
        <time>2019-05-31T13:49:46Z</time>
      </trkpt>
      <trkpt lat="43.09454" lon="5.93576">
        <ele>-4.67</ele>
        <time>2019-05-31T13:50:03Z</time>
      </trkpt>
      <trkpt lat="43.09433" lon="5.93549">
        <ele>-3.71</ele>
        <time>2019-05-31T13:50:17Z</time>
      </trkpt>
      <trkpt lat="43.09426" lon="5.9354">
        <ele>-4.19</ele>
        <time>2019-05-31T13:50:22Z</time>
      </trkpt>
      <trkpt lat="43.09407" lon="5.93515">
        <ele>-3.71</ele>
        <time>2019-05-31T13:50:36Z</time>
      </trkpt>
      <trkpt lat="43.09397" lon="5.93501">
        <ele>-3.23</ele>
        <time>2019-05-31T13:50:44Z</time>
      </trkpt>
      <trkpt lat="43.09382" lon="5.93481">
        <ele>-3.23</ele>
        <time>2019-05-31T13:50:56Z</time>
      </trkpt>
      <trkpt lat="43.09377" lon="5.93472">
        <ele>-3.23</ele>
        <time>2019-05-31T13:51:01Z</time>
      </trkpt>
      <trkpt lat="43.0936" lon="5.93451">
        <ele>-3.71</ele>
        <time>2019-05-31T13:51:16Z</time>
      </trkpt>
      <trkpt lat="43.09352" lon="5.93441">
        <ele>-3.71</ele>
        <time>2019-05-31T13:51:23Z</time>
      </trkpt>
      <trkpt lat="43.09336" lon="5.93423">
        <ele>-3.23</ele>
        <time>2019-05-31T13:51:38Z</time>
      </trkpt>
      <trkpt lat="43.09322" lon="5.93403">
        <ele>-2.75</ele>
        <time>2019-05-31T13:51:53Z</time>
      </trkpt>
      <trkpt lat="43.09306" lon="5.93385">
        <ele>-2.27</ele>
        <time>2019-05-31T13:52:09Z</time>
      </trkpt>
      <trkpt lat="43.09293" lon="5.93369">
        <ele>-2.75</ele>
        <time>2019-05-31T13:52:22Z</time>
      </trkpt>
      <trkpt lat="43.09276" lon="5.93349">
        <ele>-2.75</ele>
        <time>2019-05-31T13:52:33Z</time>
      </trkpt>
      <trkpt lat="43.0925" lon="5.93319">
        <ele>-2.75</ele>
        <time>2019-05-31T13:52:47Z</time>
      </trkpt>
      <trkpt lat="43.09221" lon="5.93287">
        <ele>-1.79</ele>
        <time>2019-05-31T13:53:01Z</time>
      </trkpt>
      <trkpt lat="43.09194" lon="5.93253">
        <ele>-1.79</ele>
        <time>2019-05-31T13:53:14Z</time>
      </trkpt>
      <trkpt lat="43.09177" lon="5.93223">
        <ele>-2.27</ele>
        <time>2019-05-31T13:53:24Z</time>
      </trkpt>
      <trkpt lat="43.09153" lon="5.9317">
        <ele>-3.71</ele>
        <time>2019-05-31T13:53:40Z</time>
      </trkpt>
      <trkpt lat="43.09131" lon="5.93127">
        <ele>-4.19</ele>
        <time>2019-05-31T13:53:54Z</time>
      </trkpt>
      <trkpt lat="43.09098" lon="5.93061">
        <ele>-3.23</ele>
        <time>2019-05-31T13:54:15Z</time>
      </trkpt>
      <trkpt lat="43.09062" lon="5.92991">
        <ele>-3.23</ele>
        <time>2019-05-31T13:54:35Z</time>
      </trkpt>
      <trkpt lat="43.09029" lon="5.92926">
        <ele>-3.23</ele>
        <time>2019-05-31T13:54:53Z</time>
      </trkpt>
      <trkpt lat="43.09002" lon="5.92865">
        <ele>-3.23</ele>
        <time>2019-05-31T13:55:09Z</time>
      </trkpt>
      <trkpt lat="43.08969" lon="5.9281">
        <ele>-3.71</ele>
        <time>2019-05-31T13:55:25Z</time>
      </trkpt>
      <trkpt lat="43.0893" lon="5.92762">
        <ele>-3.23</ele>
        <time>2019-05-31T13:55:43Z</time>
      </trkpt>
      <trkpt lat="43.08901" lon="5.92731">
        <ele>-3.23</ele>
        <time>2019-05-31T13:55:57Z</time>
      </trkpt>
      <trkpt lat="43.08867" lon="5.92663">
        <ele>-3.23</ele>
        <time>2019-05-31T13:56:17Z</time>
      </trkpt>
      <trkpt lat="43.08847" lon="5.9258">
        <ele>-3.71</ele>
        <time>2019-05-31T13:56:37Z</time>
      </trkpt>
      <trkpt lat="43.08843" lon="5.92516">
        <ele>-3.23</ele>
        <time>2019-05-31T13:56:52Z</time>
      </trkpt>
      <trkpt lat="43.0884" lon="5.9244">
        <ele>-3.23</ele>
        <time>2019-05-31T13:57:09Z</time>
      </trkpt>
      <trkpt lat="43.08844" lon="5.92365">
        <ele>-1.79</ele>
        <time>2019-05-31T13:57:26Z</time>
      </trkpt>
      <trkpt lat="43.08849" lon="5.92265">
        <ele>-0.82</ele>
        <time>2019-05-31T13:57:48Z</time>
      </trkpt>
      <trkpt lat="43.08849" lon="5.92178">
        <ele>-0.34</ele>
        <time>2019-05-31T13:58:07Z</time>
      </trkpt>
      <trkpt lat="43.08853" lon="5.92092">
        <ele>-1.3</ele>
        <time>2019-05-31T13:58:26Z</time>
      </trkpt>
      <trkpt lat="43.08863" lon="5.92011">
        <ele>-2.27</ele>
        <time>2019-05-31T13:58:45Z</time>
      </trkpt>
      <trkpt lat="43.0888" lon="5.91927">
        <ele>-1.79</ele>
        <time>2019-05-31T13:59:05Z</time>
      </trkpt>
      <trkpt lat="43.08887" lon="5.9181">
        <ele>-0.82</ele>
        <time>2019-05-31T13:59:31Z</time>
      </trkpt>
      <trkpt lat="43.08886" lon="5.91729">
        <ele>-0.34</ele>
        <time>2019-05-31T13:59:49Z</time>
      </trkpt>
      <trkpt lat="43.08885" lon="5.91652">
        <ele>-0.82</ele>
        <time>2019-05-31T14:00:06Z</time>
      </trkpt>
      <trkpt lat="43.08886" lon="5.91572">
        <ele>-0.34</ele>
        <time>2019-05-31T14:00:24Z</time>
      </trkpt>
      <trkpt lat="43.08884" lon="5.91498">
        <ele>0.14</ele>
        <time>2019-05-31T14:00:43Z</time>
      </trkpt>
      <trkpt lat="43.0886" lon="5.91486">
        <ele>-0.34</ele>
        <time>2019-05-31T14:00:57Z</time>
      </trkpt>
      <trkpt lat="43.08843" lon="5.91501">
        <ele>-1.3</ele>
        <time>2019-05-31T14:01:11Z</time>
      </trkpt>
      <trkpt lat="43.08826" lon="5.91508">
        <ele>-1.3</ele>
        <time>2019-05-31T14:01:26Z</time>
      </trkpt>
      <trkpt lat="43.08811" lon="5.91518">
        <ele>-2.27</ele>
        <time>2019-05-31T14:01:41Z</time>
      </trkpt>
      <trkpt lat="43.08796" lon="5.9153">
        <ele>-2.75</ele>
        <time>2019-05-31T14:01:57Z</time>
      </trkpt>
      <trkpt lat="43.08779" lon="5.91542">
        <ele>-3.23</ele>
        <time>2019-05-31T14:02:16Z</time>
      </trkpt>
      <trkpt lat="43.08763" lon="5.9156">
        <ele>-3.71</ele>
        <time>2019-05-31T14:02:38Z</time>
      </trkpt>
      <trkpt lat="43.08745" lon="5.91574">
        <ele>-3.71</ele>
        <time>2019-05-31T14:02:58Z</time>
      </trkpt>
      <trkpt lat="43.08733" lon="5.91589">
        <ele>-3.71</ele>
        <time>2019-05-31T14:03:16Z</time>
      </trkpt>
      <trkpt lat="43.08713" lon="5.91606">
        <ele>-2.27</ele>
        <time>2019-05-31T14:03:33Z</time>
      </trkpt>
      <trkpt lat="43.08709" lon="5.91581">
        <ele>-2.75</ele>
        <time>2019-05-31T14:03:43Z</time>
      </trkpt>
      <trkpt lat="43.08707" lon="5.91512">
        <ele>-2.27</ele>
        <time>2019-05-31T14:04:01Z</time>
      </trkpt>
      <trkpt lat="43.08684" lon="5.91424">
        <ele>-3.71</ele>
        <time>2019-05-31T14:04:24Z</time>
      </trkpt>
      <trkpt lat="43.08654" lon="5.91339">
        <ele>-5.63</ele>
        <time>2019-05-31T14:04:47Z</time>
      </trkpt>
      <trkpt lat="43.08622" lon="5.91266">
        <ele>-4.67</ele>
        <time>2019-05-31T14:05:08Z</time>
      </trkpt>
      <trkpt lat="43.08582" lon="5.91193">
        <ele>-3.23</ele>
        <time>2019-05-31T14:05:31Z</time>
      </trkpt>
      <trkpt lat="43.08558" lon="5.9114">
        <ele>-3.23</ele>
        <time>2019-05-31T14:05:51Z</time>
      </trkpt>
      <trkpt lat="43.08517" lon="5.91071">
        <ele>-3.23</ele>
        <time>2019-05-31T14:06:16Z</time>
      </trkpt>
      <trkpt lat="43.08468" lon="5.91018">
        <ele>-2.27</ele>
        <time>2019-05-31T14:06:40Z</time>
      </trkpt>
      <trkpt lat="43.08425" lon="5.90974">
        <ele>-1.79</ele>
        <time>2019-05-31T14:07:01Z</time>
      </trkpt>
      <trkpt lat="43.08374" lon="5.90923">
        <ele>-2.27</ele>
        <time>2019-05-31T14:07:27Z</time>
      </trkpt>
      <trkpt lat="43.08333" lon="5.90889">
        <ele>-2.75</ele>
        <time>2019-05-31T14:07:51Z</time>
      </trkpt>
      <trkpt lat="43.08299" lon="5.90856">
        <ele>-2.27</ele>
        <time>2019-05-31T14:08:19Z</time>
      </trkpt>
      <trkpt lat="43.08278" lon="5.90832">
        <ele>-1.79</ele>
        <time>2019-05-31T14:08:43Z</time>
      </trkpt>
      <trkpt lat="43.08251" lon="5.90803">
        <ele>-1.79</ele>
        <time>2019-05-31T14:09:14Z</time>
      </trkpt>
      <trkpt lat="43.08229" lon="5.90781">
        <ele>-1.3</ele>
        <time>2019-05-31T14:09:41Z</time>
      </trkpt>
      <trkpt lat="43.08204" lon="5.90755">
        <ele>-1.3</ele>
        <time>2019-05-31T14:10:11Z</time>
      </trkpt>
      <trkpt lat="43.08182" lon="5.90727">
        <ele>-1.79</ele>
        <time>2019-05-31T14:10:38Z</time>
      </trkpt>
      <trkpt lat="43.08159" lon="5.90703">
        <ele>0.14</ele>
        <time>2019-05-31T14:11:03Z</time>
      </trkpt>
      <trkpt lat="43.08135" lon="5.90685">
        <ele>-2.27</ele>
        <time>2019-05-31T14:11:30Z</time>
      </trkpt>
      <trkpt lat="43.08107" lon="5.90679">
        <ele>-3.71</ele>
        <time>2019-05-31T14:11:57Z</time>
      </trkpt>
      <trkpt lat="43.08099" lon="5.90665">
        <ele>-2.75</ele>
        <time>2019-05-31T14:12:17Z</time>
      </trkpt>
      <trkpt lat="43.08103" lon="5.9066">
        <ele>-3.71</ele>
        <time>2019-05-31T14:12:44Z</time>
      </trkpt>
      <trkpt lat="43.08103" lon="5.90659">
        <ele>-3.71</ele>
        <time>2019-05-31T14:13:04Z</time>
      </trkpt>
      <trkpt lat="43.08095" lon="5.90663">
        <ele>-4.19</ele>
        <time>2019-05-31T14:13:27Z</time>
      </trkpt>
      <trkpt lat="43.08088" lon="5.90681">
        <ele>-3.71</ele>
        <time>2019-05-31T14:13:50Z</time>
      </trkpt>
      <trkpt lat="43.08084" lon="5.90709">
        <ele>-3.71</ele>
        <time>2019-05-31T14:14:19Z</time>
      </trkpt>
      <trkpt lat="43.08066" lon="5.90713">
        <ele>-3.71</ele>
        <time>2019-05-31T14:14:45Z</time>
      </trkpt>
      <trkpt lat="43.08046" lon="5.90706">
        <ele>-4.19</ele>
        <time>2019-05-31T14:15:10Z</time>
      </trkpt>
      <trkpt lat="43.08031" lon="5.90699">
        <ele>-4.19</ele>
        <time>2019-05-31T14:15:30Z</time>
      </trkpt>
      <trkpt lat="43.08018" lon="5.90687">
        <ele>-2.75</ele>
        <time>2019-05-31T14:15:51Z</time>
      </trkpt>
      <trkpt lat="43.08017" lon="5.90675">
        <ele>0.62</ele>
        <time>2019-05-31T14:16:15Z</time>
      </trkpt>
      <trkpt lat="43.08017" lon="5.90676">
        <ele>2.06</ele>
        <time>2019-05-31T14:16:35Z</time>
      </trkpt>
      <trkpt lat="43.08017" lon="5.90676">
        <ele>3.5</ele>
        <time>2019-05-31T14:17:00Z</time>
      </trkpt>
      <trkpt lat="43.08017" lon="5.90676">
        <ele>4.46</ele>
        <time>2019-05-31T14:17:29Z</time>
      </trkpt>
      <trkpt lat="43.08017" lon="5.90676">
        <ele>4.46</ele>
        <time>2019-05-31T14:17:56Z</time>
      </trkpt>
      <trkpt lat="43.08017" lon="5.90677">
        <ele>3.5</ele>
        <time>2019-05-31T14:18:25Z</time>
      </trkpt>
      <trkpt lat="43.08016" lon="5.90676">
        <ele>2.06</ele>
        <time>2019-05-31T14:18:53Z</time>
      </trkpt>
      <trkpt lat="43.08015" lon="5.90677">
        <ele>2.54</ele>
        <time>2019-05-31T14:19:25Z</time>
      </trkpt>
      <trkpt lat="43.08017" lon="5.90675">
        <ele>2.54</ele>
        <time>2019-05-31T14:19:53Z</time>
      </trkpt>
      <trkpt lat="43.08017" lon="5.90675">
        <ele>2.06</ele>
        <time>2019-05-31T14:20:19Z</time>
      </trkpt>
      <trkpt lat="43.08017" lon="5.90675">
        <ele>2.06</ele>
        <time>2019-05-31T14:20:46Z</time>
      </trkpt>
      <trkpt lat="43.08017" lon="5.90675">
        <ele>2.06</ele>
        <time>2019-05-31T14:21:11Z</time>
      </trkpt>
      <trkpt lat="43.08017" lon="5.90675">
        <ele>2.54</ele>
        <time>2019-05-31T14:21:38Z</time>
      </trkpt>
      <trkpt lat="43.08017" lon="5.90675">
        <ele>2.54</ele>
        <time>2019-05-31T14:22:05Z</time>
      </trkpt>
      <trkpt lat="43.08016" lon="5.90676">
        <ele>1.58</ele>
        <time>2019-05-31T14:22:30Z</time>
      </trkpt>
      <trkpt lat="43.08016" lon="5.90676">
        <ele>1.1</ele>
        <time>2019-05-31T14:22:56Z</time>
      </trkpt>
      <trkpt lat="43.08017" lon="5.90677">
        <ele>0.62</ele>
        <time>2019-05-31T14:23:22Z</time>
      </trkpt>
      <trkpt lat="43.08017" lon="5.90677">
        <ele>0.62</ele>
        <time>2019-05-31T14:23:46Z</time>
      </trkpt>
      <trkpt lat="43.08017" lon="5.90677">
        <ele>0.62</ele>
        <time>2019-05-31T14:24:08Z</time>
      </trkpt>
      <trkpt lat="43.08017" lon="5.90677">
        <ele>0.62</ele>
        <time>2019-05-31T14:24:32Z</time>
      </trkpt>
      <trkpt lat="43.08017" lon="5.90677">
        <ele>0.62</ele>
        <time>2019-05-31T14:24:54Z</time>
      </trkpt>
      <trkpt lat="43.08018" lon="5.90676">
        <ele>1.1</ele>
        <time>2019-05-31T14:25:21Z</time>
      </trkpt>
      <trkpt lat="43.08018" lon="5.90676">
        <ele>1.1</ele>
        <time>2019-05-31T14:25:36Z</time>
      </trkpt>
      <trkpt lat="43.08018" lon="5.90676">
        <ele>0.62</ele>
        <time>2019-05-31T14:26:04Z</time>
      </trkpt>
      <trkpt lat="43.08018" lon="5.90675">
        <ele>0.14</ele>
        <time>2019-05-31T14:26:30Z</time>
      </trkpt>
      <trkpt lat="43.08018" lon="5.90675">
        <ele>0.62</ele>
        <time>2019-05-31T14:26:58Z</time>
      </trkpt>
      <trkpt lat="43.08018" lon="5.90675">
        <ele>0.62</ele>
        <time>2019-05-31T14:27:29Z</time>
      </trkpt>
      <trkpt lat="43.08018" lon="5.90675">
        <ele>0.62</ele>
        <time>2019-05-31T14:27:59Z</time>
      </trkpt>
      <trkpt lat="43.08018" lon="5.90675">
        <ele>0.62</ele>
        <time>2019-05-31T14:28:28Z</time>
      </trkpt>
      <trkpt lat="43.08018" lon="5.90675">
        <ele>0.62</ele>
        <time>2019-05-31T14:28:53Z</time>
      </trkpt>
      <trkpt lat="43.08018" lon="5.90676">
        <ele>1.1</ele>
        <time>2019-05-31T14:29:23Z</time>
      </trkpt>
      <trkpt lat="43.08018" lon="5.90676">
        <ele>1.1</ele>
        <time>2019-05-31T14:29:43Z</time>
      </trkpt>
      <trkpt lat="43.08018" lon="5.90676">
        <ele>1.1</ele>
        <time>2019-05-31T14:30:11Z</time>
      </trkpt>
      <trkpt lat="43.08018" lon="5.90676">
        <ele>1.1</ele>
        <time>2019-05-31T14:30:40Z</time>
      </trkpt>
      <trkpt lat="43.08017" lon="5.90677">
        <ele>1.58</ele>
        <time>2019-05-31T14:31:06Z</time>
      </trkpt>
      <trkpt lat="43.08018" lon="5.90676">
        <ele>2.06</ele>
        <time>2019-05-31T14:31:28Z</time>
      </trkpt>
      <trkpt lat="43.08018" lon="5.90676">
        <ele>2.54</ele>
        <time>2019-05-31T14:31:41Z</time>
      </trkpt>
    </trkseg>
  </trk>
</gpx>